<?xml version="1.0" encoding="UTF-8" standalone="no" ?>
<gpx xmlns="http://www.topografix.com/GPX/1/1" xmlns:xsi="http://www.w3.org/2001/XMLSchema-instance" xsi:schemaLocation="http://www.topografix.com/GPX/1/1 http://www.topografix.com/GPX/1/1/gpx.xsd" version="1.1" creator="VisuGPX - https://www.visugpx.com">
  <metadata>
    <name>Quevauvillers (80)  14km</name>
    <desc><![CDATA[Walkmeter Randonnée 24 nov. 2013 09:14:52]]></desc>
  </metadata>
  <trk>
    <name><![CDATA[Ch en S - Quevauvillers]]></name>
    <trkseg>
      <trkpt lat="49.82508" lon="2.08306">
        <ele>133.1</ele>
        <time>2013-11-24T08:14:52Z</time>
      </trkpt>
      <trkpt lat="49.82499" lon="2.08298">
        <ele>132.5</ele>
        <time>2013-11-24T08:14:53Z</time>
      </trkpt>
      <trkpt lat="49.82505" lon="2.08286">
        <ele>125.3</ele>
        <time>2013-11-24T08:15:09Z</time>
      </trkpt>
      <trkpt lat="49.82499" lon="2.08283">
        <ele>125.7</ele>
        <time>2013-11-24T08:15:21Z</time>
      </trkpt>
      <trkpt lat="49.82498" lon="2.08262">
        <ele>126.3</ele>
        <time>2013-11-24T08:15:36Z</time>
      </trkpt>
      <trkpt lat="49.82492" lon="2.08243">
        <ele>126.7</ele>
        <time>2013-11-24T08:15:48Z</time>
      </trkpt>
      <trkpt lat="49.82481" lon="2.08228">
        <ele>126.1</ele>
        <time>2013-11-24T08:16:02Z</time>
      </trkpt>
      <trkpt lat="49.82472" lon="2.08212">
        <ele>126.8</ele>
        <time>2013-11-24T08:16:14Z</time>
      </trkpt>
      <trkpt lat="49.82462" lon="2.08199">
        <ele>127.7</ele>
        <time>2013-11-24T08:16:29Z</time>
      </trkpt>
      <trkpt lat="49.82448" lon="2.08191">
        <ele>128</ele>
        <time>2013-11-24T08:16:35Z</time>
      </trkpt>
      <trkpt lat="49.82435" lon="2.08191">
        <ele>128.4</ele>
        <time>2013-11-24T08:16:41Z</time>
      </trkpt>
      <trkpt lat="49.82422" lon="2.08199">
        <ele>128.9</ele>
        <time>2013-11-24T08:16:50Z</time>
      </trkpt>
      <trkpt lat="49.82408" lon="2.08206">
        <ele>129.5</ele>
        <time>2013-11-24T08:17:09Z</time>
      </trkpt>
      <trkpt lat="49.82393" lon="2.08206">
        <ele>129.8</ele>
        <time>2013-11-24T08:17:18Z</time>
      </trkpt>
      <trkpt lat="49.82381" lon="2.0821">
        <ele>130</ele>
        <time>2013-11-24T08:17:26Z</time>
      </trkpt>
      <trkpt lat="49.8237" lon="2.08222">
        <ele>130.4</ele>
        <time>2013-11-24T08:17:38Z</time>
      </trkpt>
      <trkpt lat="49.82358" lon="2.08232">
        <ele>130.8</ele>
        <time>2013-11-24T08:17:50Z</time>
      </trkpt>
      <trkpt lat="49.82345" lon="2.08245">
        <ele>131.1</ele>
        <time>2013-11-24T08:18:01Z</time>
      </trkpt>
      <trkpt lat="49.82335" lon="2.08258">
        <ele>131.4</ele>
        <time>2013-11-24T08:18:11Z</time>
      </trkpt>
      <trkpt lat="49.82325" lon="2.08276">
        <ele>131.8</ele>
        <time>2013-11-24T08:18:24Z</time>
      </trkpt>
      <trkpt lat="49.82311" lon="2.08275">
        <ele>131.9</ele>
        <time>2013-11-24T08:18:33Z</time>
      </trkpt>
      <trkpt lat="49.82297" lon="2.08274">
        <ele>130.9</ele>
        <time>2013-11-24T08:18:41Z</time>
      </trkpt>
      <trkpt lat="49.82284" lon="2.08285">
        <ele>129.5</ele>
        <time>2013-11-24T08:18:53Z</time>
      </trkpt>
      <trkpt lat="49.82273" lon="2.08298">
        <ele>128.5</ele>
        <time>2013-11-24T08:19:01Z</time>
      </trkpt>
      <trkpt lat="49.82268" lon="2.08319">
        <ele>126.9</ele>
        <time>2013-11-24T08:19:09Z</time>
      </trkpt>
      <trkpt lat="49.82258" lon="2.08336">
        <ele>124.3</ele>
        <time>2013-11-24T08:19:18Z</time>
      </trkpt>
      <trkpt lat="49.82248" lon="2.08351">
        <ele>118.8</ele>
        <time>2013-11-24T08:19:28Z</time>
      </trkpt>
      <trkpt lat="49.82237" lon="2.08366">
        <ele>116</ele>
        <time>2013-11-24T08:19:39Z</time>
      </trkpt>
      <trkpt lat="49.82221" lon="2.08375">
        <ele>117.9</ele>
        <time>2013-11-24T08:19:48Z</time>
      </trkpt>
      <trkpt lat="49.82207" lon="2.08378">
        <ele>122.2</ele>
        <time>2013-11-24T08:19:57Z</time>
      </trkpt>
      <trkpt lat="49.82193" lon="2.08383">
        <ele>127.6</ele>
        <time>2013-11-24T08:20:08Z</time>
      </trkpt>
      <trkpt lat="49.82183" lon="2.08399">
        <ele>130.3</ele>
        <time>2013-11-24T08:20:22Z</time>
      </trkpt>
      <trkpt lat="49.82181" lon="2.0842">
        <ele>130.3</ele>
        <time>2013-11-24T08:20:36Z</time>
      </trkpt>
      <trkpt lat="49.82189" lon="2.08439">
        <ele>129.5</ele>
        <time>2013-11-24T08:20:44Z</time>
      </trkpt>
      <trkpt lat="49.82195" lon="2.08459">
        <ele>127.1</ele>
        <time>2013-11-24T08:20:56Z</time>
      </trkpt>
      <trkpt lat="49.82192" lon="2.0847">
        <ele>126.5</ele>
        <time>2013-11-24T08:21:04Z</time>
      </trkpt>
      <trkpt lat="49.82195" lon="2.0849">
        <ele>128.3</ele>
        <time>2013-11-24T08:21:17Z</time>
      </trkpt>
      <trkpt lat="49.82184" lon="2.08503">
        <ele>128.7</ele>
        <time>2013-11-24T08:21:26Z</time>
      </trkpt>
      <trkpt lat="49.82172" lon="2.08513">
        <ele>128</ele>
        <time>2013-11-24T08:21:36Z</time>
      </trkpt>
      <trkpt lat="49.82163" lon="2.0853">
        <ele>127.3</ele>
        <time>2013-11-24T08:21:46Z</time>
      </trkpt>
      <trkpt lat="49.82153" lon="2.08545">
        <ele>126.6</ele>
        <time>2013-11-24T08:21:56Z</time>
      </trkpt>
      <trkpt lat="49.8214" lon="2.08557">
        <ele>125.8</ele>
        <time>2013-11-24T08:22:07Z</time>
      </trkpt>
      <trkpt lat="49.82126" lon="2.08549">
        <ele>125.1</ele>
        <time>2013-11-24T08:22:17Z</time>
      </trkpt>
      <trkpt lat="49.82119" lon="2.0853">
        <ele>124.6</ele>
        <time>2013-11-24T08:22:24Z</time>
      </trkpt>
      <trkpt lat="49.82117" lon="2.08508">
        <ele>124.9</ele>
        <time>2013-11-24T08:22:38Z</time>
      </trkpt>
      <trkpt lat="49.8211" lon="2.08489">
        <ele>126.3</ele>
        <time>2013-11-24T08:22:45Z</time>
      </trkpt>
      <trkpt lat="49.82103" lon="2.08471">
        <ele>127.4</ele>
        <time>2013-11-24T08:22:55Z</time>
      </trkpt>
      <trkpt lat="49.82095" lon="2.08452">
        <ele>128</ele>
        <time>2013-11-24T08:23:05Z</time>
      </trkpt>
      <trkpt lat="49.82085" lon="2.08438">
        <ele>128.5</ele>
        <time>2013-11-24T08:23:13Z</time>
      </trkpt>
      <trkpt lat="49.82076" lon="2.08421">
        <ele>129</ele>
        <time>2013-11-24T08:23:22Z</time>
      </trkpt>
      <trkpt lat="49.82072" lon="2.08401">
        <ele>129.7</ele>
        <time>2013-11-24T08:23:33Z</time>
      </trkpt>
      <trkpt lat="49.82066" lon="2.08382">
        <ele>130.3</ele>
        <time>2013-11-24T08:23:43Z</time>
      </trkpt>
      <trkpt lat="49.82057" lon="2.08363">
        <ele>131</ele>
        <time>2013-11-24T08:23:55Z</time>
      </trkpt>
      <trkpt lat="49.82049" lon="2.08345">
        <ele>131.5</ele>
        <time>2013-11-24T08:24:03Z</time>
      </trkpt>
      <trkpt lat="49.82041" lon="2.08327">
        <ele>132</ele>
        <time>2013-11-24T08:24:12Z</time>
      </trkpt>
      <trkpt lat="49.82035" lon="2.08309">
        <ele>132.6</ele>
        <time>2013-11-24T08:24:21Z</time>
      </trkpt>
      <trkpt lat="49.82025" lon="2.08291">
        <ele>131.5</ele>
        <time>2013-11-24T08:24:31Z</time>
      </trkpt>
      <trkpt lat="49.82017" lon="2.08273">
        <ele>128.4</ele>
        <time>2013-11-24T08:24:41Z</time>
      </trkpt>
      <trkpt lat="49.82012" lon="2.08253">
        <ele>130</ele>
        <time>2013-11-24T08:24:53Z</time>
      </trkpt>
      <trkpt lat="49.82002" lon="2.08237">
        <ele>131.3</ele>
        <time>2013-11-24T08:25:04Z</time>
      </trkpt>
      <trkpt lat="49.81993" lon="2.08219">
        <ele>132.6</ele>
        <time>2013-11-24T08:25:15Z</time>
      </trkpt>
      <trkpt lat="49.81986" lon="2.082">
        <ele>133.7</ele>
        <time>2013-11-24T08:25:25Z</time>
      </trkpt>
      <trkpt lat="49.81978" lon="2.08181">
        <ele>135.3</ele>
        <time>2013-11-24T08:25:39Z</time>
      </trkpt>
      <trkpt lat="49.81976" lon="2.08159">
        <ele>136.5</ele>
        <time>2013-11-24T08:25:49Z</time>
      </trkpt>
      <trkpt lat="49.81969" lon="2.08139">
        <ele>137.4</ele>
        <time>2013-11-24T08:25:57Z</time>
      </trkpt>
      <trkpt lat="49.81956" lon="2.0815">
        <ele>138.8</ele>
        <time>2013-11-24T08:26:08Z</time>
      </trkpt>
      <trkpt lat="49.8195" lon="2.0817">
        <ele>137.7</ele>
        <time>2013-11-24T08:26:14Z</time>
      </trkpt>
      <trkpt lat="49.81938" lon="2.08182">
        <ele>141.3</ele>
        <time>2013-11-24T08:26:25Z</time>
      </trkpt>
      <trkpt lat="49.81925" lon="2.08194">
        <ele>145.2</ele>
        <time>2013-11-24T08:26:34Z</time>
      </trkpt>
      <trkpt lat="49.81914" lon="2.08207">
        <ele>145.5</ele>
        <time>2013-11-24T08:26:44Z</time>
      </trkpt>
      <trkpt lat="49.819" lon="2.08208">
        <ele>144.8</ele>
        <time>2013-11-24T08:26:53Z</time>
      </trkpt>
      <trkpt lat="49.81887" lon="2.08223">
        <ele>146.7</ele>
        <time>2013-11-24T08:27:00Z</time>
      </trkpt>
      <trkpt lat="49.81878" lon="2.08239">
        <ele>148.6</ele>
        <time>2013-11-24T08:27:10Z</time>
      </trkpt>
      <trkpt lat="49.81865" lon="2.08246">
        <ele>149.5</ele>
        <time>2013-11-24T08:27:21Z</time>
      </trkpt>
      <trkpt lat="49.81852" lon="2.08252">
        <ele>148.1</ele>
        <time>2013-11-24T08:27:31Z</time>
      </trkpt>
      <trkpt lat="49.81838" lon="2.08257">
        <ele>149</ele>
        <time>2013-11-24T08:27:46Z</time>
      </trkpt>
      <trkpt lat="49.81827" lon="2.0827">
        <ele>149.6</ele>
        <time>2013-11-24T08:27:55Z</time>
      </trkpt>
      <trkpt lat="49.81814" lon="2.08278">
        <ele>150.5</ele>
        <time>2013-11-24T08:28:08Z</time>
      </trkpt>
      <trkpt lat="49.81802" lon="2.08291">
        <ele>150.8</ele>
        <time>2013-11-24T08:28:20Z</time>
      </trkpt>
      <trkpt lat="49.81789" lon="2.08301">
        <ele>150.2</ele>
        <time>2013-11-24T08:28:30Z</time>
      </trkpt>
      <trkpt lat="49.81775" lon="2.0831">
        <ele>149.6</ele>
        <time>2013-11-24T08:28:41Z</time>
      </trkpt>
      <trkpt lat="49.81764" lon="2.08323">
        <ele>149</ele>
        <time>2013-11-24T08:28:52Z</time>
      </trkpt>
      <trkpt lat="49.81752" lon="2.08334">
        <ele>148.5</ele>
        <time>2013-11-24T08:29:02Z</time>
      </trkpt>
      <trkpt lat="49.81743" lon="2.08353">
        <ele>147.9</ele>
        <time>2013-11-24T08:29:12Z</time>
      </trkpt>
      <trkpt lat="49.81732" lon="2.08368">
        <ele>146.5</ele>
        <time>2013-11-24T08:29:22Z</time>
      </trkpt>
      <trkpt lat="49.81721" lon="2.08381">
        <ele>145.3</ele>
        <time>2013-11-24T08:29:31Z</time>
      </trkpt>
      <trkpt lat="49.81711" lon="2.08399">
        <ele>144.5</ele>
        <time>2013-11-24T08:29:38Z</time>
      </trkpt>
      <trkpt lat="49.81704" lon="2.08418">
        <ele>143.9</ele>
        <time>2013-11-24T08:29:45Z</time>
      </trkpt>
      <trkpt lat="49.81694" lon="2.08433">
        <ele>142.4</ele>
        <time>2013-11-24T08:29:56Z</time>
      </trkpt>
      <trkpt lat="49.81682" lon="2.08446">
        <ele>139.2</ele>
        <time>2013-11-24T08:30:06Z</time>
      </trkpt>
      <trkpt lat="49.81672" lon="2.0846">
        <ele>137.9</ele>
        <time>2013-11-24T08:30:15Z</time>
      </trkpt>
      <trkpt lat="49.81658" lon="2.08464">
        <ele>135.4</ele>
        <time>2013-11-24T08:30:27Z</time>
      </trkpt>
      <trkpt lat="49.81645" lon="2.08474">
        <ele>132.3</ele>
        <time>2013-11-24T08:30:39Z</time>
      </trkpt>
      <trkpt lat="49.81634" lon="2.08488">
        <ele>132.8</ele>
        <time>2013-11-24T08:30:47Z</time>
      </trkpt>
      <trkpt lat="49.81623" lon="2.08503">
        <ele>134.6</ele>
        <time>2013-11-24T08:30:56Z</time>
      </trkpt>
      <trkpt lat="49.81614" lon="2.08521">
        <ele>134.8</ele>
        <time>2013-11-24T08:31:03Z</time>
      </trkpt>
      <trkpt lat="49.81605" lon="2.08536">
        <ele>134</ele>
        <time>2013-11-24T08:31:10Z</time>
      </trkpt>
      <trkpt lat="49.81593" lon="2.08548">
        <ele>132.7</ele>
        <time>2013-11-24T08:31:21Z</time>
      </trkpt>
      <trkpt lat="49.8158" lon="2.08557">
        <ele>132.6</ele>
        <time>2013-11-24T08:31:34Z</time>
      </trkpt>
      <trkpt lat="49.81572" lon="2.08574">
        <ele>133.5</ele>
        <time>2013-11-24T08:31:44Z</time>
      </trkpt>
      <trkpt lat="49.8156" lon="2.08585">
        <ele>134.3</ele>
        <time>2013-11-24T08:31:54Z</time>
      </trkpt>
      <trkpt lat="49.81549" lon="2.08599">
        <ele>135.2</ele>
        <time>2013-11-24T08:32:04Z</time>
      </trkpt>
      <trkpt lat="49.81538" lon="2.08613">
        <ele>136.8</ele>
        <time>2013-11-24T08:32:17Z</time>
      </trkpt>
      <trkpt lat="49.81523" lon="2.0862">
        <ele>138.3</ele>
        <time>2013-11-24T08:32:30Z</time>
      </trkpt>
      <trkpt lat="49.81514" lon="2.08635">
        <ele>139.2</ele>
        <time>2013-11-24T08:32:38Z</time>
      </trkpt>
      <trkpt lat="49.81502" lon="2.08651">
        <ele>140.5</ele>
        <time>2013-11-24T08:32:48Z</time>
      </trkpt>
      <trkpt lat="49.81492" lon="2.08665">
        <ele>141</ele>
        <time>2013-11-24T08:32:58Z</time>
      </trkpt>
      <trkpt lat="49.81482" lon="2.08679">
        <ele>142.1</ele>
        <time>2013-11-24T08:33:07Z</time>
      </trkpt>
      <trkpt lat="49.81469" lon="2.08694">
        <ele>143.6</ele>
        <time>2013-11-24T08:33:19Z</time>
      </trkpt>
      <trkpt lat="49.81457" lon="2.08705">
        <ele>142.4</ele>
        <time>2013-11-24T08:33:32Z</time>
      </trkpt>
      <trkpt lat="49.81445" lon="2.08719">
        <ele>147.8</ele>
        <time>2013-11-24T08:33:45Z</time>
      </trkpt>
      <trkpt lat="49.81433" lon="2.0873">
        <ele>152.5</ele>
        <time>2013-11-24T08:33:56Z</time>
      </trkpt>
      <trkpt lat="49.81422" lon="2.08744">
        <ele>156.5</ele>
        <time>2013-11-24T08:34:05Z</time>
      </trkpt>
      <trkpt lat="49.81411" lon="2.08759">
        <ele>160.5</ele>
        <time>2013-11-24T08:34:16Z</time>
      </trkpt>
      <trkpt lat="49.81401" lon="2.08772">
        <ele>164</ele>
        <time>2013-11-24T08:34:27Z</time>
      </trkpt>
      <trkpt lat="49.81392" lon="2.08789">
        <ele>167.8</ele>
        <time>2013-11-24T08:34:36Z</time>
      </trkpt>
      <trkpt lat="49.81383" lon="2.08806">
        <ele>172</ele>
        <time>2013-11-24T08:34:44Z</time>
      </trkpt>
      <trkpt lat="49.81373" lon="2.0882">
        <ele>174.2</ele>
        <time>2013-11-24T08:34:52Z</time>
      </trkpt>
      <trkpt lat="49.81361" lon="2.08833">
        <ele>172.1</ele>
        <time>2013-11-24T08:35:02Z</time>
      </trkpt>
      <trkpt lat="49.81349" lon="2.08846">
        <ele>173.1</ele>
        <time>2013-11-24T08:35:14Z</time>
      </trkpt>
      <trkpt lat="49.81336" lon="2.08856">
        <ele>173.5</ele>
        <time>2013-11-24T08:35:23Z</time>
      </trkpt>
      <trkpt lat="49.81323" lon="2.08866">
        <ele>173.9</ele>
        <time>2013-11-24T08:35:33Z</time>
      </trkpt>
      <trkpt lat="49.81313" lon="2.08883">
        <ele>173.2</ele>
        <time>2013-11-24T08:35:42Z</time>
      </trkpt>
      <trkpt lat="49.81304" lon="2.08901">
        <ele>172.2</ele>
        <time>2013-11-24T08:35:51Z</time>
      </trkpt>
      <trkpt lat="49.81295" lon="2.08918">
        <ele>171.2</ele>
        <time>2013-11-24T08:36:00Z</time>
      </trkpt>
      <trkpt lat="49.81282" lon="2.08921">
        <ele>168.9</ele>
        <time>2013-11-24T08:36:14Z</time>
      </trkpt>
      <trkpt lat="49.81269" lon="2.0893">
        <ele>164.4</ele>
        <time>2013-11-24T08:36:27Z</time>
      </trkpt>
      <trkpt lat="49.81261" lon="2.08947">
        <ele>162</ele>
        <time>2013-11-24T08:36:35Z</time>
      </trkpt>
      <trkpt lat="49.81248" lon="2.08954">
        <ele>158.8</ele>
        <time>2013-11-24T08:36:47Z</time>
      </trkpt>
      <trkpt lat="49.81239" lon="2.08969">
        <ele>152.5</ele>
        <time>2013-11-24T08:36:57Z</time>
      </trkpt>
      <trkpt lat="49.81227" lon="2.08983">
        <ele>147.7</ele>
        <time>2013-11-24T08:37:09Z</time>
      </trkpt>
      <trkpt lat="49.81218" lon="2.09">
        <ele>145.8</ele>
        <time>2013-11-24T08:37:20Z</time>
      </trkpt>
      <trkpt lat="49.81209" lon="2.09017">
        <ele>144.2</ele>
        <time>2013-11-24T08:37:29Z</time>
      </trkpt>
      <trkpt lat="49.81198" lon="2.09031">
        <ele>142.2</ele>
        <time>2013-11-24T08:37:39Z</time>
      </trkpt>
      <trkpt lat="49.81185" lon="2.09041">
        <ele>138.9</ele>
        <time>2013-11-24T08:37:51Z</time>
      </trkpt>
      <trkpt lat="49.81174" lon="2.09032">
        <ele>137.1</ele>
        <time>2013-11-24T08:37:59Z</time>
      </trkpt>
      <trkpt lat="49.81168" lon="2.09051">
        <ele>136.1</ele>
        <time>2013-11-24T08:38:08Z</time>
      </trkpt>
      <trkpt lat="49.81157" lon="2.09066">
        <ele>136.5</ele>
        <time>2013-11-24T08:38:19Z</time>
      </trkpt>
      <trkpt lat="49.81145" lon="2.09063">
        <ele>136.7</ele>
        <time>2013-11-24T08:38:25Z</time>
      </trkpt>
      <trkpt lat="49.81137" lon="2.09047">
        <ele>137</ele>
        <time>2013-11-24T08:38:32Z</time>
      </trkpt>
      <trkpt lat="49.81136" lon="2.09043">
        <ele>136.4</ele>
        <time>2013-11-24T08:38:34Z</time>
      </trkpt>
      <trkpt lat="49.81143" lon="2.09044">
        <ele>138</ele>
        <time>2013-11-24T08:38:50Z</time>
      </trkpt>
      <trkpt lat="49.81134" lon="2.09026">
        <ele>136</ele>
        <time>2013-11-24T08:39:00Z</time>
      </trkpt>
      <trkpt lat="49.81132" lon="2.09005">
        <ele>135</ele>
        <time>2013-11-24T08:39:12Z</time>
      </trkpt>
      <trkpt lat="49.81127" lon="2.08985">
        <ele>134.2</ele>
        <time>2013-11-24T08:39:22Z</time>
      </trkpt>
      <trkpt lat="49.81119" lon="2.08968">
        <ele>133.6</ele>
        <time>2013-11-24T08:39:29Z</time>
      </trkpt>
      <trkpt lat="49.81111" lon="2.0896">
        <ele>133.1</ele>
        <time>2013-11-24T08:39:36Z</time>
      </trkpt>
      <trkpt lat="49.81099" lon="2.08971">
        <ele>131.4</ele>
        <time>2013-11-24T08:39:56Z</time>
      </trkpt>
      <trkpt lat="49.81084" lon="2.08975">
        <ele>132.2</ele>
        <time>2013-11-24T08:40:16Z</time>
      </trkpt>
      <trkpt lat="49.81073" lon="2.08987">
        <ele>130</ele>
        <time>2013-11-24T08:40:29Z</time>
      </trkpt>
      <trkpt lat="49.81063" lon="2.09002">
        <ele>127.9</ele>
        <time>2013-11-24T08:40:39Z</time>
      </trkpt>
      <trkpt lat="49.81054" lon="2.09018">
        <ele>127.3</ele>
        <time>2013-11-24T08:40:49Z</time>
      </trkpt>
      <trkpt lat="49.81038" lon="2.09021">
        <ele>126.8</ele>
        <time>2013-11-24T08:40:58Z</time>
      </trkpt>
      <trkpt lat="49.81031" lon="2.09039">
        <ele>126</ele>
        <time>2013-11-24T08:41:12Z</time>
      </trkpt>
      <trkpt lat="49.81018" lon="2.09052">
        <ele>125.3</ele>
        <time>2013-11-24T08:41:24Z</time>
      </trkpt>
      <trkpt lat="49.81006" lon="2.09063">
        <ele>123.8</ele>
        <time>2013-11-24T08:41:32Z</time>
      </trkpt>
      <trkpt lat="49.80998" lon="2.09083">
        <ele>120.8</ele>
        <time>2013-11-24T08:41:39Z</time>
      </trkpt>
      <trkpt lat="49.80986" lon="2.09097">
        <ele>112.7</ele>
        <time>2013-11-24T08:41:52Z</time>
      </trkpt>
      <trkpt lat="49.80978" lon="2.09124">
        <ele>115.8</ele>
        <time>2013-11-24T08:42:12Z</time>
      </trkpt>
      <trkpt lat="49.80978" lon="2.09124">
        <ele>115.8</ele>
        <time>2013-11-24T08:43:17Z</time>
      </trkpt>
      <trkpt lat="49.80978" lon="2.09132">
        <ele>123.9</ele>
        <time>2013-11-24T08:43:20Z</time>
      </trkpt>
      <trkpt lat="49.80967" lon="2.09143">
        <ele>126.8</ele>
        <time>2013-11-24T08:43:30Z</time>
      </trkpt>
      <trkpt lat="49.80967" lon="2.09143">
        <ele>126.8</ele>
        <time>2013-11-24T08:47:27Z</time>
      </trkpt>
      <trkpt lat="49.80957" lon="2.09157">
        <ele>125.8</ele>
        <time>2013-11-24T08:47:30Z</time>
      </trkpt>
      <trkpt lat="49.80953" lon="2.09177">
        <ele>124.1</ele>
        <time>2013-11-24T08:47:37Z</time>
      </trkpt>
      <trkpt lat="49.80949" lon="2.09198">
        <ele>122.9</ele>
        <time>2013-11-24T08:47:45Z</time>
      </trkpt>
      <trkpt lat="49.8094" lon="2.09216">
        <ele>121.7</ele>
        <time>2013-11-24T08:47:53Z</time>
      </trkpt>
      <trkpt lat="49.80931" lon="2.09233">
        <ele>120.7</ele>
        <time>2013-11-24T08:48:01Z</time>
      </trkpt>
      <trkpt lat="49.80921" lon="2.09251">
        <ele>120.1</ele>
        <time>2013-11-24T08:48:08Z</time>
      </trkpt>
      <trkpt lat="49.80909" lon="2.09259">
        <ele>119.4</ele>
        <time>2013-11-24T08:48:16Z</time>
      </trkpt>
      <trkpt lat="49.80896" lon="2.09268">
        <ele>121.4</ele>
        <time>2013-11-24T08:48:25Z</time>
      </trkpt>
      <trkpt lat="49.80883" lon="2.09271">
        <ele>123.2</ele>
        <time>2013-11-24T08:48:35Z</time>
      </trkpt>
      <trkpt lat="49.8087" lon="2.09282">
        <ele>124.6</ele>
        <time>2013-11-24T08:48:46Z</time>
      </trkpt>
      <trkpt lat="49.80856" lon="2.09284">
        <ele>126.9</ele>
        <time>2013-11-24T08:48:59Z</time>
      </trkpt>
      <trkpt lat="49.80843" lon="2.09293">
        <ele>128.8</ele>
        <time>2013-11-24T08:49:12Z</time>
      </trkpt>
      <trkpt lat="49.80832" lon="2.09305">
        <ele>130</ele>
        <time>2013-11-24T08:49:22Z</time>
      </trkpt>
      <trkpt lat="49.80829" lon="2.09326">
        <ele>128.5</ele>
        <time>2013-11-24T08:49:36Z</time>
      </trkpt>
      <trkpt lat="49.8082" lon="2.09346">
        <ele>127.8</ele>
        <time>2013-11-24T08:49:48Z</time>
      </trkpt>
      <trkpt lat="49.8081" lon="2.09363">
        <ele>127.4</ele>
        <time>2013-11-24T08:49:55Z</time>
      </trkpt>
      <trkpt lat="49.808" lon="2.0938">
        <ele>126.8</ele>
        <time>2013-11-24T08:50:05Z</time>
      </trkpt>
      <trkpt lat="49.8079" lon="2.09395">
        <ele>126.2</ele>
        <time>2013-11-24T08:50:15Z</time>
      </trkpt>
      <trkpt lat="49.80783" lon="2.09414">
        <ele>125.2</ele>
        <time>2013-11-24T08:50:25Z</time>
      </trkpt>
      <trkpt lat="49.80776" lon="2.09432">
        <ele>124.4</ele>
        <time>2013-11-24T08:50:33Z</time>
      </trkpt>
      <trkpt lat="49.80775" lon="2.09455">
        <ele>123</ele>
        <time>2013-11-24T08:50:46Z</time>
      </trkpt>
      <trkpt lat="49.80772" lon="2.09476">
        <ele>121.5</ele>
        <time>2013-11-24T08:50:56Z</time>
      </trkpt>
      <trkpt lat="49.80764" lon="2.09496">
        <ele>120</ele>
        <time>2013-11-24T08:51:06Z</time>
      </trkpt>
      <trkpt lat="49.80755" lon="2.09512">
        <ele>118</ele>
        <time>2013-11-24T08:51:17Z</time>
      </trkpt>
      <trkpt lat="49.80748" lon="2.09532">
        <ele>116.4</ele>
        <time>2013-11-24T08:51:26Z</time>
      </trkpt>
      <trkpt lat="49.80742" lon="2.09551">
        <ele>114.8</ele>
        <time>2013-11-24T08:51:36Z</time>
      </trkpt>
      <trkpt lat="49.80736" lon="2.09571">
        <ele>113.6</ele>
        <time>2013-11-24T08:51:44Z</time>
      </trkpt>
      <trkpt lat="49.8073" lon="2.09593">
        <ele>113.7</ele>
        <time>2013-11-24T08:51:56Z</time>
      </trkpt>
      <trkpt lat="49.80729" lon="2.09614">
        <ele>109.6</ele>
        <time>2013-11-24T08:52:06Z</time>
      </trkpt>
      <trkpt lat="49.80727" lon="2.09635">
        <ele>109.8</ele>
        <time>2013-11-24T08:52:17Z</time>
      </trkpt>
      <trkpt lat="49.80722" lon="2.09654">
        <ele>107.5</ele>
        <time>2013-11-24T08:52:26Z</time>
      </trkpt>
      <trkpt lat="49.80715" lon="2.09673">
        <ele>108.7</ele>
        <time>2013-11-24T08:52:35Z</time>
      </trkpt>
      <trkpt lat="49.80711" lon="2.09693">
        <ele>105.7</ele>
        <time>2013-11-24T08:52:44Z</time>
      </trkpt>
      <trkpt lat="49.80709" lon="2.09715">
        <ele>102.8</ele>
        <time>2013-11-24T08:52:53Z</time>
      </trkpt>
      <trkpt lat="49.80707" lon="2.09737">
        <ele>100.3</ele>
        <time>2013-11-24T08:53:01Z</time>
      </trkpt>
      <trkpt lat="49.80704" lon="2.09759">
        <ele>99.1</ele>
        <time>2013-11-24T08:53:12Z</time>
      </trkpt>
      <trkpt lat="49.80702" lon="2.0978">
        <ele>94.8</ele>
        <time>2013-11-24T08:53:23Z</time>
      </trkpt>
      <trkpt lat="49.80707" lon="2.09801">
        <ele>90</ele>
        <time>2013-11-24T08:53:34Z</time>
      </trkpt>
      <trkpt lat="49.80713" lon="2.09821">
        <ele>86.4</ele>
        <time>2013-11-24T08:53:44Z</time>
      </trkpt>
      <trkpt lat="49.8071" lon="2.09842">
        <ele>87.4</ele>
        <time>2013-11-24T08:53:55Z</time>
      </trkpt>
      <trkpt lat="49.807" lon="2.09855">
        <ele>88</ele>
        <time>2013-11-24T08:54:05Z</time>
      </trkpt>
      <trkpt lat="49.80687" lon="2.09872">
        <ele>88</ele>
        <time>2013-11-24T08:54:12Z</time>
      </trkpt>
      <trkpt lat="49.80674" lon="2.09878">
        <ele>85.7</ele>
        <time>2013-11-24T08:54:28Z</time>
      </trkpt>
      <trkpt lat="49.80662" lon="2.0989">
        <ele>85.7</ele>
        <time>2013-11-24T08:54:38Z</time>
      </trkpt>
      <trkpt lat="49.8065" lon="2.09901">
        <ele>88.9</ele>
        <time>2013-11-24T08:54:48Z</time>
      </trkpt>
      <trkpt lat="49.8064" lon="2.09918">
        <ele>88.2</ele>
        <time>2013-11-24T08:54:57Z</time>
      </trkpt>
      <trkpt lat="49.80631" lon="2.09937">
        <ele>87.6</ele>
        <time>2013-11-24T08:55:05Z</time>
      </trkpt>
      <trkpt lat="49.80624" lon="2.09955">
        <ele>86.8</ele>
        <time>2013-11-24T08:55:16Z</time>
      </trkpt>
      <trkpt lat="49.80618" lon="2.09974">
        <ele>86.1</ele>
        <time>2013-11-24T08:55:25Z</time>
      </trkpt>
      <trkpt lat="49.80611" lon="2.09992">
        <ele>85.7</ele>
        <time>2013-11-24T08:55:36Z</time>
      </trkpt>
      <trkpt lat="49.80603" lon="2.10012">
        <ele>85.3</ele>
        <time>2013-11-24T08:55:45Z</time>
      </trkpt>
      <trkpt lat="49.80593" lon="2.10027">
        <ele>84.9</ele>
        <time>2013-11-24T08:55:57Z</time>
      </trkpt>
      <trkpt lat="49.80579" lon="2.10036">
        <ele>84.5</ele>
        <time>2013-11-24T08:56:09Z</time>
      </trkpt>
      <trkpt lat="49.80566" lon="2.10042">
        <ele>84.2</ele>
        <time>2013-11-24T08:56:19Z</time>
      </trkpt>
      <trkpt lat="49.80553" lon="2.10052">
        <ele>83.8</ele>
        <time>2013-11-24T08:56:29Z</time>
      </trkpt>
      <trkpt lat="49.80541" lon="2.10064">
        <ele>83.5</ele>
        <time>2013-11-24T08:56:38Z</time>
      </trkpt>
      <trkpt lat="49.80529" lon="2.10076">
        <ele>83.2</ele>
        <time>2013-11-24T08:56:47Z</time>
      </trkpt>
      <trkpt lat="49.80521" lon="2.10094">
        <ele>82.3</ele>
        <time>2013-11-24T08:56:57Z</time>
      </trkpt>
      <trkpt lat="49.80513" lon="2.10113">
        <ele>80.8</ele>
        <time>2013-11-24T08:57:08Z</time>
      </trkpt>
      <trkpt lat="49.80504" lon="2.10129">
        <ele>80.6</ele>
        <time>2013-11-24T08:57:18Z</time>
      </trkpt>
      <trkpt lat="49.80497" lon="2.10148">
        <ele>82.3</ele>
        <time>2013-11-24T08:57:29Z</time>
      </trkpt>
      <trkpt lat="49.80489" lon="2.10166">
        <ele>83.9</ele>
        <time>2013-11-24T08:57:40Z</time>
      </trkpt>
      <trkpt lat="49.80487" lon="2.10187">
        <ele>85</ele>
        <time>2013-11-24T08:57:47Z</time>
      </trkpt>
      <trkpt lat="49.80484" lon="2.1021">
        <ele>84.6</ele>
        <time>2013-11-24T08:57:54Z</time>
      </trkpt>
      <trkpt lat="49.80481" lon="2.10232">
        <ele>83.9</ele>
        <time>2013-11-24T08:58:05Z</time>
      </trkpt>
      <trkpt lat="49.80471" lon="2.10247">
        <ele>83.1</ele>
        <time>2013-11-24T08:58:19Z</time>
      </trkpt>
      <trkpt lat="49.8046" lon="2.10262">
        <ele>82.4</ele>
        <time>2013-11-24T08:58:31Z</time>
      </trkpt>
      <trkpt lat="49.80447" lon="2.10268">
        <ele>82.1</ele>
        <time>2013-11-24T08:58:40Z</time>
      </trkpt>
      <trkpt lat="49.80438" lon="2.10251">
        <ele>82.6</ele>
        <time>2013-11-24T08:58:50Z</time>
      </trkpt>
      <trkpt lat="49.80431" lon="2.10232">
        <ele>83.2</ele>
        <time>2013-11-24T08:59:00Z</time>
      </trkpt>
      <trkpt lat="49.80423" lon="2.10214">
        <ele>83.7</ele>
        <time>2013-11-24T08:59:09Z</time>
      </trkpt>
      <trkpt lat="49.80417" lon="2.10194">
        <ele>84.3</ele>
        <time>2013-11-24T08:59:21Z</time>
      </trkpt>
      <trkpt lat="49.80411" lon="2.10173">
        <ele>84.8</ele>
        <time>2013-11-24T08:59:30Z</time>
      </trkpt>
      <trkpt lat="49.80402" lon="2.10155">
        <ele>87.5</ele>
        <time>2013-11-24T08:59:40Z</time>
      </trkpt>
      <trkpt lat="49.80394" lon="2.10136">
        <ele>91</ele>
        <time>2013-11-24T08:59:49Z</time>
      </trkpt>
      <trkpt lat="49.80392" lon="2.10114">
        <ele>87.8</ele>
        <time>2013-11-24T08:59:59Z</time>
      </trkpt>
      <trkpt lat="49.80389" lon="2.10093">
        <ele>87</ele>
        <time>2013-11-24T09:00:08Z</time>
      </trkpt>
      <trkpt lat="49.80388" lon="2.10072">
        <ele>86.2</ele>
        <time>2013-11-24T09:00:18Z</time>
      </trkpt>
      <trkpt lat="49.80386" lon="2.10051">
        <ele>85.5</ele>
        <time>2013-11-24T09:00:25Z</time>
      </trkpt>
      <trkpt lat="49.80387" lon="2.1003">
        <ele>87</ele>
        <time>2013-11-24T09:00:33Z</time>
      </trkpt>
      <trkpt lat="49.80393" lon="2.10011">
        <ele>90.7</ele>
        <time>2013-11-24T09:00:48Z</time>
      </trkpt>
      <trkpt lat="49.8039" lon="2.0999">
        <ele>91.2</ele>
        <time>2013-11-24T09:00:56Z</time>
      </trkpt>
      <trkpt lat="49.80395" lon="2.09968">
        <ele>91.8</ele>
        <time>2013-11-24T09:01:06Z</time>
      </trkpt>
      <trkpt lat="49.80402" lon="2.09949">
        <ele>92.5</ele>
        <time>2013-11-24T09:01:18Z</time>
      </trkpt>
      <trkpt lat="49.80408" lon="2.0993">
        <ele>93.1</ele>
        <time>2013-11-24T09:01:28Z</time>
      </trkpt>
      <trkpt lat="49.8041" lon="2.09908">
        <ele>93.7</ele>
        <time>2013-11-24T09:01:38Z</time>
      </trkpt>
      <trkpt lat="49.80414" lon="2.09887">
        <ele>93.7</ele>
        <time>2013-11-24T09:01:46Z</time>
      </trkpt>
      <trkpt lat="49.80417" lon="2.09865">
        <ele>92.6</ele>
        <time>2013-11-24T09:01:56Z</time>
      </trkpt>
      <trkpt lat="49.80412" lon="2.09845">
        <ele>91.8</ele>
        <time>2013-11-24T09:02:04Z</time>
      </trkpt>
      <trkpt lat="49.80413" lon="2.09823">
        <ele>90.3</ele>
        <time>2013-11-24T09:02:13Z</time>
      </trkpt>
      <trkpt lat="49.80413" lon="2.09801">
        <ele>81</ele>
        <time>2013-11-24T09:02:23Z</time>
      </trkpt>
      <trkpt lat="49.80411" lon="2.09777">
        <ele>82.8</ele>
        <time>2013-11-24T09:02:32Z</time>
      </trkpt>
      <trkpt lat="49.80413" lon="2.09756">
        <ele>85.6</ele>
        <time>2013-11-24T09:02:42Z</time>
      </trkpt>
      <trkpt lat="49.80424" lon="2.09741">
        <ele>87.9</ele>
        <time>2013-11-24T09:02:53Z</time>
      </trkpt>
      <trkpt lat="49.80429" lon="2.09721">
        <ele>87.3</ele>
        <time>2013-11-24T09:03:04Z</time>
      </trkpt>
      <trkpt lat="49.80425" lon="2.09699">
        <ele>86.8</ele>
        <time>2013-11-24T09:03:14Z</time>
      </trkpt>
      <trkpt lat="49.80422" lon="2.09677">
        <ele>86.4</ele>
        <time>2013-11-24T09:03:22Z</time>
      </trkpt>
      <trkpt lat="49.8042" lon="2.09656">
        <ele>85.9</ele>
        <time>2013-11-24T09:03:31Z</time>
      </trkpt>
      <trkpt lat="49.80415" lon="2.09637">
        <ele>85.5</ele>
        <time>2013-11-24T09:03:38Z</time>
      </trkpt>
      <trkpt lat="49.80411" lon="2.09617">
        <ele>85.2</ele>
        <time>2013-11-24T09:03:45Z</time>
      </trkpt>
      <trkpt lat="49.80412" lon="2.096">
        <ele>84.7</ele>
        <time>2013-11-24T09:03:54Z</time>
      </trkpt>
      <trkpt lat="49.8042" lon="2.09595">
        <ele>84.2</ele>
        <time>2013-11-24T09:04:03Z</time>
      </trkpt>
      <trkpt lat="49.80423" lon="2.09575">
        <ele>83.7</ele>
        <time>2013-11-24T09:04:14Z</time>
      </trkpt>
      <trkpt lat="49.80421" lon="2.09553">
        <ele>83.2</ele>
        <time>2013-11-24T09:04:25Z</time>
      </trkpt>
      <trkpt lat="49.80427" lon="2.09536">
        <ele>82.7</ele>
        <time>2013-11-24T09:04:35Z</time>
      </trkpt>
      <trkpt lat="49.80424" lon="2.09515">
        <ele>82.3</ele>
        <time>2013-11-24T09:04:43Z</time>
      </trkpt>
      <trkpt lat="49.80425" lon="2.09494">
        <ele>81.9</ele>
        <time>2013-11-24T09:04:53Z</time>
      </trkpt>
      <trkpt lat="49.80422" lon="2.09471">
        <ele>81.5</ele>
        <time>2013-11-24T09:05:02Z</time>
      </trkpt>
      <trkpt lat="49.80422" lon="2.0945">
        <ele>81.7</ele>
        <time>2013-11-24T09:05:14Z</time>
      </trkpt>
      <trkpt lat="49.80424" lon="2.09428">
        <ele>85</ele>
        <time>2013-11-24T09:05:24Z</time>
      </trkpt>
      <trkpt lat="49.80423" lon="2.09405">
        <ele>86</ele>
        <time>2013-11-24T09:05:35Z</time>
      </trkpt>
      <trkpt lat="49.80424" lon="2.09362">
        <ele>87.2</ele>
        <time>2013-11-24T09:06:07Z</time>
      </trkpt>
      <trkpt lat="49.80424" lon="2.09362">
        <ele>87.2</ele>
        <time>2013-11-24T09:07:06Z</time>
      </trkpt>
      <trkpt lat="49.80425" lon="2.09339">
        <ele>87.5</ele>
        <time>2013-11-24T09:07:07Z</time>
      </trkpt>
      <trkpt lat="49.80426" lon="2.09317">
        <ele>87.8</ele>
        <time>2013-11-24T09:07:17Z</time>
      </trkpt>
      <trkpt lat="49.80421" lon="2.09294">
        <ele>87.9</ele>
        <time>2013-11-24T09:07:20Z</time>
      </trkpt>
      <trkpt lat="49.80417" lon="2.09273">
        <ele>88</ele>
        <time>2013-11-24T09:07:23Z</time>
      </trkpt>
      <trkpt lat="49.80417" lon="2.0926">
        <ele>88.1</ele>
        <time>2013-11-24T09:07:27Z</time>
      </trkpt>
      <trkpt lat="49.80429" lon="2.09271">
        <ele>88.4</ele>
        <time>2013-11-24T09:07:36Z</time>
      </trkpt>
      <trkpt lat="49.80442" lon="2.09276">
        <ele>88.7</ele>
        <time>2013-11-24T09:07:45Z</time>
      </trkpt>
      <trkpt lat="49.80457" lon="2.09274">
        <ele>89</ele>
        <time>2013-11-24T09:07:56Z</time>
      </trkpt>
      <trkpt lat="49.80463" lon="2.09272">
        <ele>87.5</ele>
        <time>2013-11-24T09:08:10Z</time>
      </trkpt>
      <trkpt lat="49.80477" lon="2.09244">
        <ele>87.4</ele>
        <time>2013-11-24T09:08:10Z</time>
      </trkpt>
      <trkpt lat="49.8049" lon="2.09248">
        <ele>86.9</ele>
        <time>2013-11-24T09:08:31Z</time>
      </trkpt>
      <trkpt lat="49.8049" lon="2.09216">
        <ele>91.3</ele>
        <time>2013-11-24T09:09:11Z</time>
      </trkpt>
      <trkpt lat="49.8049" lon="2.09216">
        <ele>91.3</ele>
        <time>2013-11-24T09:12:37Z</time>
      </trkpt>
      <trkpt lat="49.80486" lon="2.09205">
        <ele>93.8</ele>
        <time>2013-11-24T09:12:39Z</time>
      </trkpt>
      <trkpt lat="49.80479" lon="2.09184">
        <ele>94</ele>
        <time>2013-11-24T09:12:45Z</time>
      </trkpt>
      <trkpt lat="49.80471" lon="2.09166">
        <ele>96</ele>
        <time>2013-11-24T09:12:58Z</time>
      </trkpt>
      <trkpt lat="49.80466" lon="2.09147">
        <ele>94.5</ele>
        <time>2013-11-24T09:13:09Z</time>
      </trkpt>
      <trkpt lat="49.80456" lon="2.09131">
        <ele>96.3</ele>
        <time>2013-11-24T09:13:15Z</time>
      </trkpt>
      <trkpt lat="49.80448" lon="2.09113">
        <ele>97.2</ele>
        <time>2013-11-24T09:13:25Z</time>
      </trkpt>
      <trkpt lat="49.80439" lon="2.09098">
        <ele>101.1</ele>
        <time>2013-11-24T09:13:33Z</time>
      </trkpt>
      <trkpt lat="49.80429" lon="2.09082">
        <ele>101.6</ele>
        <time>2013-11-24T09:13:41Z</time>
      </trkpt>
      <trkpt lat="49.80427" lon="2.09059">
        <ele>99.3</ele>
        <time>2013-11-24T09:13:56Z</time>
      </trkpt>
      <trkpt lat="49.80425" lon="2.09039">
        <ele>94.6</ele>
        <time>2013-11-24T09:14:10Z</time>
      </trkpt>
      <trkpt lat="49.80424" lon="2.09018">
        <ele>92.5</ele>
        <time>2013-11-24T09:14:20Z</time>
      </trkpt>
      <trkpt lat="49.8043" lon="2.09001">
        <ele>93.2</ele>
        <time>2013-11-24T09:14:30Z</time>
      </trkpt>
      <trkpt lat="49.80426" lon="2.0898">
        <ele>96.4</ele>
        <time>2013-11-24T09:14:39Z</time>
      </trkpt>
      <trkpt lat="49.80423" lon="2.08958">
        <ele>95.4</ele>
        <time>2013-11-24T09:14:48Z</time>
      </trkpt>
      <trkpt lat="49.8042" lon="2.08938">
        <ele>94.5</ele>
        <time>2013-11-24T09:14:55Z</time>
      </trkpt>
      <trkpt lat="49.80421" lon="2.08917">
        <ele>93.1</ele>
        <time>2013-11-24T09:15:07Z</time>
      </trkpt>
      <trkpt lat="49.80418" lon="2.08896">
        <ele>95.1</ele>
        <time>2013-11-24T09:15:15Z</time>
      </trkpt>
      <trkpt lat="49.80414" lon="2.08873">
        <ele>99.7</ele>
        <time>2013-11-24T09:15:27Z</time>
      </trkpt>
      <trkpt lat="49.80411" lon="2.08851">
        <ele>101.3</ele>
        <time>2013-11-24T09:15:37Z</time>
      </trkpt>
      <trkpt lat="49.80415" lon="2.08829">
        <ele>101.8</ele>
        <time>2013-11-24T09:15:48Z</time>
      </trkpt>
      <trkpt lat="49.80421" lon="2.08811">
        <ele>102.2</ele>
        <time>2013-11-24T09:15:58Z</time>
      </trkpt>
      <trkpt lat="49.80426" lon="2.08791">
        <ele>102.7</ele>
        <time>2013-11-24T09:16:08Z</time>
      </trkpt>
      <trkpt lat="49.80432" lon="2.0877">
        <ele>104.2</ele>
        <time>2013-11-24T09:16:19Z</time>
      </trkpt>
      <trkpt lat="49.80433" lon="2.08749">
        <ele>106.7</ele>
        <time>2013-11-24T09:16:27Z</time>
      </trkpt>
      <trkpt lat="49.80438" lon="2.08729">
        <ele>109.6</ele>
        <time>2013-11-24T09:16:38Z</time>
      </trkpt>
      <trkpt lat="49.80445" lon="2.0871">
        <ele>105.5</ele>
        <time>2013-11-24T09:16:49Z</time>
      </trkpt>
      <trkpt lat="49.80448" lon="2.0869">
        <ele>103.3</ele>
        <time>2013-11-24T09:17:01Z</time>
      </trkpt>
      <trkpt lat="49.80454" lon="2.08669">
        <ele>103.5</ele>
        <time>2013-11-24T09:17:14Z</time>
      </trkpt>
      <trkpt lat="49.80458" lon="2.08648">
        <ele>105.4</ele>
        <time>2013-11-24T09:17:23Z</time>
      </trkpt>
      <trkpt lat="49.80465" lon="2.08627">
        <ele>107.9</ele>
        <time>2013-11-24T09:17:40Z</time>
      </trkpt>
      <trkpt lat="49.8047" lon="2.08607">
        <ele>109.4</ele>
        <time>2013-11-24T09:17:50Z</time>
      </trkpt>
      <trkpt lat="49.80474" lon="2.08586">
        <ele>110.5</ele>
        <time>2013-11-24T09:18:00Z</time>
      </trkpt>
      <trkpt lat="49.80479" lon="2.08566">
        <ele>111.5</ele>
        <time>2013-11-24T09:18:11Z</time>
      </trkpt>
      <trkpt lat="49.80484" lon="2.08544">
        <ele>112</ele>
        <time>2013-11-24T09:18:21Z</time>
      </trkpt>
      <trkpt lat="49.80487" lon="2.08523">
        <ele>108.7</ele>
        <time>2013-11-24T09:18:35Z</time>
      </trkpt>
      <trkpt lat="49.80489" lon="2.08502">
        <ele>109.2</ele>
        <time>2013-11-24T09:18:45Z</time>
      </trkpt>
      <trkpt lat="49.80493" lon="2.08481">
        <ele>107.3</ele>
        <time>2013-11-24T09:19:01Z</time>
      </trkpt>
      <trkpt lat="49.80494" lon="2.08459">
        <ele>106.4</ele>
        <time>2013-11-24T09:19:13Z</time>
      </trkpt>
      <trkpt lat="49.80503" lon="2.08441">
        <ele>110</ele>
        <time>2013-11-24T09:19:24Z</time>
      </trkpt>
      <trkpt lat="49.80512" lon="2.08424">
        <ele>111.5</ele>
        <time>2013-11-24T09:19:33Z</time>
      </trkpt>
      <trkpt lat="49.80515" lon="2.08403">
        <ele>113.3</ele>
        <time>2013-11-24T09:19:44Z</time>
      </trkpt>
      <trkpt lat="49.80523" lon="2.08386">
        <ele>114.6</ele>
        <time>2013-11-24T09:19:54Z</time>
      </trkpt>
      <trkpt lat="49.8053" lon="2.08368">
        <ele>116</ele>
        <time>2013-11-24T09:20:04Z</time>
      </trkpt>
      <trkpt lat="49.80541" lon="2.08353">
        <ele>121.2</ele>
        <time>2013-11-24T09:20:15Z</time>
      </trkpt>
      <trkpt lat="49.80549" lon="2.08358">
        <ele>124.9</ele>
        <time>2013-11-24T09:20:25Z</time>
      </trkpt>
      <trkpt lat="49.80557" lon="2.08336">
        <ele>129.2</ele>
        <time>2013-11-24T09:20:32Z</time>
      </trkpt>
      <trkpt lat="49.80562" lon="2.08314">
        <ele>131.8</ele>
        <time>2013-11-24T09:20:39Z</time>
      </trkpt>
      <trkpt lat="49.8057" lon="2.08296">
        <ele>135.2</ele>
        <time>2013-11-24T09:20:49Z</time>
      </trkpt>
      <trkpt lat="49.80572" lon="2.08274">
        <ele>137</ele>
        <time>2013-11-24T09:20:56Z</time>
      </trkpt>
      <trkpt lat="49.80582" lon="2.0826">
        <ele>137.6</ele>
        <time>2013-11-24T09:21:07Z</time>
      </trkpt>
      <trkpt lat="49.80591" lon="2.08242">
        <ele>137.8</ele>
        <time>2013-11-24T09:21:19Z</time>
      </trkpt>
      <trkpt lat="49.806" lon="2.08225">
        <ele>136.9</ele>
        <time>2013-11-24T09:21:33Z</time>
      </trkpt>
      <trkpt lat="49.80601" lon="2.08203">
        <ele>136.1</ele>
        <time>2013-11-24T09:21:47Z</time>
      </trkpt>
      <trkpt lat="49.8061" lon="2.08187">
        <ele>140</ele>
        <time>2013-11-24T09:22:00Z</time>
      </trkpt>
      <trkpt lat="49.80617" lon="2.08168">
        <ele>140.5</ele>
        <time>2013-11-24T09:22:11Z</time>
      </trkpt>
      <trkpt lat="49.80623" lon="2.08148">
        <ele>141</ele>
        <time>2013-11-24T09:22:21Z</time>
      </trkpt>
      <trkpt lat="49.8063" lon="2.0813">
        <ele>141.6</ele>
        <time>2013-11-24T09:22:32Z</time>
      </trkpt>
      <trkpt lat="49.80637" lon="2.08112">
        <ele>142.1</ele>
        <time>2013-11-24T09:22:44Z</time>
      </trkpt>
      <trkpt lat="49.80644" lon="2.08092">
        <ele>142.7</ele>
        <time>2013-11-24T09:22:55Z</time>
      </trkpt>
      <trkpt lat="49.80652" lon="2.08074">
        <ele>142.8</ele>
        <time>2013-11-24T09:23:06Z</time>
      </trkpt>
      <trkpt lat="49.80658" lon="2.08054">
        <ele>142.4</ele>
        <time>2013-11-24T09:23:14Z</time>
      </trkpt>
      <trkpt lat="49.80667" lon="2.08036">
        <ele>141.7</ele>
        <time>2013-11-24T09:23:28Z</time>
      </trkpt>
      <trkpt lat="49.80677" lon="2.08021">
        <ele>140.9</ele>
        <time>2013-11-24T09:23:43Z</time>
      </trkpt>
      <trkpt lat="49.80683" lon="2.0801">
        <ele>140.1</ele>
        <time>2013-11-24T09:23:58Z</time>
      </trkpt>
      <trkpt lat="49.80695" lon="2.08024">
        <ele>131.4</ele>
        <time>2013-11-24T09:24:09Z</time>
      </trkpt>
      <trkpt lat="49.80709" lon="2.08021">
        <ele>131.4</ele>
        <time>2013-11-24T09:24:20Z</time>
      </trkpt>
      <trkpt lat="49.80723" lon="2.08019">
        <ele>132.9</ele>
        <time>2013-11-24T09:24:31Z</time>
      </trkpt>
      <trkpt lat="49.80737" lon="2.08023">
        <ele>134</ele>
        <time>2013-11-24T09:24:39Z</time>
      </trkpt>
      <trkpt lat="49.80749" lon="2.08032">
        <ele>134.2</ele>
        <time>2013-11-24T09:24:51Z</time>
      </trkpt>
      <trkpt lat="49.80762" lon="2.08042">
        <ele>133.5</ele>
        <time>2013-11-24T09:25:06Z</time>
      </trkpt>
      <trkpt lat="49.80771" lon="2.08058">
        <ele>134.9</ele>
        <time>2013-11-24T09:25:16Z</time>
      </trkpt>
      <trkpt lat="49.80782" lon="2.08073">
        <ele>137.3</ele>
        <time>2013-11-24T09:25:28Z</time>
      </trkpt>
      <trkpt lat="49.80794" lon="2.08086">
        <ele>137</ele>
        <time>2013-11-24T09:25:45Z</time>
      </trkpt>
      <trkpt lat="49.80804" lon="2.08102">
        <ele>135.1</ele>
        <time>2013-11-24T09:25:58Z</time>
      </trkpt>
      <trkpt lat="49.80816" lon="2.08113">
        <ele>135.4</ele>
        <time>2013-11-24T09:26:09Z</time>
      </trkpt>
      <trkpt lat="49.80829" lon="2.0812">
        <ele>135.6</ele>
        <time>2013-11-24T09:26:19Z</time>
      </trkpt>
      <trkpt lat="49.80841" lon="2.0813">
        <ele>135.9</ele>
        <time>2013-11-24T09:26:32Z</time>
      </trkpt>
      <trkpt lat="49.80854" lon="2.08137">
        <ele>136.2</ele>
        <time>2013-11-24T09:26:46Z</time>
      </trkpt>
      <trkpt lat="49.80867" lon="2.08145">
        <ele>136.6</ele>
        <time>2013-11-24T09:27:02Z</time>
      </trkpt>
      <trkpt lat="49.8088" lon="2.08155">
        <ele>136.9</ele>
        <time>2013-11-24T09:27:13Z</time>
      </trkpt>
      <trkpt lat="49.80902" lon="2.08156">
        <ele>136.9</ele>
        <time>2013-11-24T09:27:27Z</time>
      </trkpt>
      <trkpt lat="49.80902" lon="2.08156">
        <ele>136.9</ele>
        <time>2013-11-24T09:30:17Z</time>
      </trkpt>
      <trkpt lat="49.80906" lon="2.08142">
        <ele>137</ele>
        <time>2013-11-24T09:30:21Z</time>
      </trkpt>
      <trkpt lat="49.80906" lon="2.08142">
        <ele>137</ele>
        <time>2013-11-24T09:31:10Z</time>
      </trkpt>
      <trkpt lat="49.80902" lon="2.08136">
        <ele>137.3</ele>
        <time>2013-11-24T09:31:10Z</time>
      </trkpt>
      <trkpt lat="49.80893" lon="2.08121">
        <ele>137.6</ele>
        <time>2013-11-24T09:31:28Z</time>
      </trkpt>
      <trkpt lat="49.8089" lon="2.08099">
        <ele>137.8</ele>
        <time>2013-11-24T09:31:40Z</time>
      </trkpt>
      <trkpt lat="49.80887" lon="2.08078">
        <ele>137.9</ele>
        <time>2013-11-24T09:31:50Z</time>
      </trkpt>
      <trkpt lat="49.80881" lon="2.08059">
        <ele>137.3</ele>
        <time>2013-11-24T09:32:00Z</time>
      </trkpt>
      <trkpt lat="49.80877" lon="2.08039">
        <ele>134.5</ele>
        <time>2013-11-24T09:32:11Z</time>
      </trkpt>
      <trkpt lat="49.80873" lon="2.08018">
        <ele>136.7</ele>
        <time>2013-11-24T09:32:19Z</time>
      </trkpt>
      <trkpt lat="49.80871" lon="2.07997">
        <ele>136.3</ele>
        <time>2013-11-24T09:32:28Z</time>
      </trkpt>
      <trkpt lat="49.80868" lon="2.07976">
        <ele>135.6</ele>
        <time>2013-11-24T09:32:35Z</time>
      </trkpt>
      <trkpt lat="49.80861" lon="2.07957">
        <ele>134.7</ele>
        <time>2013-11-24T09:32:45Z</time>
      </trkpt>
      <trkpt lat="49.80857" lon="2.07936">
        <ele>135.2</ele>
        <time>2013-11-24T09:32:57Z</time>
      </trkpt>
      <trkpt lat="49.80852" lon="2.07915">
        <ele>136.1</ele>
        <time>2013-11-24T09:33:07Z</time>
      </trkpt>
      <trkpt lat="49.80847" lon="2.07893">
        <ele>134</ele>
        <time>2013-11-24T09:33:18Z</time>
      </trkpt>
      <trkpt lat="49.80844" lon="2.07872">
        <ele>136.5</ele>
        <time>2013-11-24T09:33:27Z</time>
      </trkpt>
      <trkpt lat="49.80838" lon="2.07852">
        <ele>137.4</ele>
        <time>2013-11-24T09:33:36Z</time>
      </trkpt>
      <trkpt lat="49.80832" lon="2.07833">
        <ele>138.2</ele>
        <time>2013-11-24T09:33:45Z</time>
      </trkpt>
      <trkpt lat="49.80829" lon="2.07811">
        <ele>139</ele>
        <time>2013-11-24T09:33:53Z</time>
      </trkpt>
      <trkpt lat="49.80826" lon="2.07789">
        <ele>140.2</ele>
        <time>2013-11-24T09:34:05Z</time>
      </trkpt>
      <trkpt lat="49.80822" lon="2.07768">
        <ele>141.4</ele>
        <time>2013-11-24T09:34:15Z</time>
      </trkpt>
      <trkpt lat="49.80816" lon="2.07752">
        <ele>141.4</ele>
        <time>2013-11-24T09:34:23Z</time>
      </trkpt>
      <trkpt lat="49.80816" lon="2.0773">
        <ele>141.8</ele>
        <time>2013-11-24T09:34:34Z</time>
      </trkpt>
      <trkpt lat="49.80816" lon="2.07707">
        <ele>142.5</ele>
        <time>2013-11-24T09:34:42Z</time>
      </trkpt>
      <trkpt lat="49.80816" lon="2.07685">
        <ele>143.5</ele>
        <time>2013-11-24T09:34:52Z</time>
      </trkpt>
      <trkpt lat="49.80817" lon="2.07664">
        <ele>145.3</ele>
        <time>2013-11-24T09:35:02Z</time>
      </trkpt>
      <trkpt lat="49.8082" lon="2.07642">
        <ele>148.2</ele>
        <time>2013-11-24T09:35:12Z</time>
      </trkpt>
      <trkpt lat="49.80823" lon="2.0762">
        <ele>149.2</ele>
        <time>2013-11-24T09:35:21Z</time>
      </trkpt>
      <trkpt lat="49.80828" lon="2.07599">
        <ele>147.6</ele>
        <time>2013-11-24T09:35:32Z</time>
      </trkpt>
      <trkpt lat="49.80832" lon="2.07577">
        <ele>146.1</ele>
        <time>2013-11-24T09:35:43Z</time>
      </trkpt>
      <trkpt lat="49.80835" lon="2.07555">
        <ele>144.2</ele>
        <time>2013-11-24T09:35:54Z</time>
      </trkpt>
      <trkpt lat="49.80838" lon="2.07533">
        <ele>142.5</ele>
        <time>2013-11-24T09:36:05Z</time>
      </trkpt>
      <trkpt lat="49.80839" lon="2.07512">
        <ele>141</ele>
        <time>2013-11-24T09:36:15Z</time>
      </trkpt>
      <trkpt lat="49.80844" lon="2.07492">
        <ele>139.3</ele>
        <time>2013-11-24T09:36:26Z</time>
      </trkpt>
      <trkpt lat="49.80848" lon="2.07471">
        <ele>139</ele>
        <time>2013-11-24T09:36:37Z</time>
      </trkpt>
      <trkpt lat="49.80851" lon="2.07451">
        <ele>136.7</ele>
        <time>2013-11-24T09:36:47Z</time>
      </trkpt>
      <trkpt lat="49.80858" lon="2.07451">
        <ele>132.8</ele>
        <time>2013-11-24T09:36:53Z</time>
      </trkpt>
      <trkpt lat="49.8086" lon="2.0743">
        <ele>131.7</ele>
        <time>2013-11-24T09:37:02Z</time>
      </trkpt>
      <trkpt lat="49.80865" lon="2.0741">
        <ele>128.4</ele>
        <time>2013-11-24T09:37:11Z</time>
      </trkpt>
      <trkpt lat="49.80866" lon="2.07388">
        <ele>132.8</ele>
        <time>2013-11-24T09:37:21Z</time>
      </trkpt>
      <trkpt lat="49.80866" lon="2.07365">
        <ele>137.1</ele>
        <time>2013-11-24T09:37:29Z</time>
      </trkpt>
      <trkpt lat="49.80865" lon="2.07342">
        <ele>141.4</ele>
        <time>2013-11-24T09:37:37Z</time>
      </trkpt>
      <trkpt lat="49.80867" lon="2.07322">
        <ele>142</ele>
        <time>2013-11-24T09:37:46Z</time>
      </trkpt>
      <trkpt lat="49.80872" lon="2.07301">
        <ele>142</ele>
        <time>2013-11-24T09:37:58Z</time>
      </trkpt>
      <trkpt lat="49.80873" lon="2.07279">
        <ele>142</ele>
        <time>2013-11-24T09:38:08Z</time>
      </trkpt>
      <trkpt lat="49.80878" lon="2.07259">
        <ele>142</ele>
        <time>2013-11-24T09:38:18Z</time>
      </trkpt>
      <trkpt lat="49.80882" lon="2.07239">
        <ele>142</ele>
        <time>2013-11-24T09:38:29Z</time>
      </trkpt>
      <trkpt lat="49.80886" lon="2.07216">
        <ele>142</ele>
        <time>2013-11-24T09:38:37Z</time>
      </trkpt>
      <trkpt lat="49.80889" lon="2.07195">
        <ele>142</ele>
        <time>2013-11-24T09:38:45Z</time>
      </trkpt>
      <trkpt lat="49.80892" lon="2.07173">
        <ele>140.8</ele>
        <time>2013-11-24T09:38:57Z</time>
      </trkpt>
      <trkpt lat="49.80896" lon="2.07152">
        <ele>138.9</ele>
        <time>2013-11-24T09:39:08Z</time>
      </trkpt>
      <trkpt lat="49.80896" lon="2.07131">
        <ele>138.4</ele>
        <time>2013-11-24T09:39:17Z</time>
      </trkpt>
      <trkpt lat="49.80898" lon="2.07108">
        <ele>137.8</ele>
        <time>2013-11-24T09:39:26Z</time>
      </trkpt>
      <trkpt lat="49.80906" lon="2.07092">
        <ele>137.2</ele>
        <time>2013-11-24T09:39:35Z</time>
      </trkpt>
      <trkpt lat="49.80906" lon="2.07071">
        <ele>136.6</ele>
        <time>2013-11-24T09:39:45Z</time>
      </trkpt>
      <trkpt lat="49.80903" lon="2.07049">
        <ele>136</ele>
        <time>2013-11-24T09:39:54Z</time>
      </trkpt>
      <trkpt lat="49.80898" lon="2.07028">
        <ele>134</ele>
        <time>2013-11-24T09:40:05Z</time>
      </trkpt>
      <trkpt lat="49.80892" lon="2.07007">
        <ele>137.6</ele>
        <time>2013-11-24T09:40:14Z</time>
      </trkpt>
      <trkpt lat="49.80891" lon="2.06985">
        <ele>139.4</ele>
        <time>2013-11-24T09:40:23Z</time>
      </trkpt>
      <trkpt lat="49.80889" lon="2.06964">
        <ele>138.4</ele>
        <time>2013-11-24T09:40:32Z</time>
      </trkpt>
      <trkpt lat="49.80891" lon="2.06942">
        <ele>137.7</ele>
        <time>2013-11-24T09:40:45Z</time>
      </trkpt>
      <trkpt lat="49.8089" lon="2.06919">
        <ele>138.7</ele>
        <time>2013-11-24T09:40:54Z</time>
      </trkpt>
      <trkpt lat="49.8089" lon="2.06898">
        <ele>139.8</ele>
        <time>2013-11-24T09:41:04Z</time>
      </trkpt>
      <trkpt lat="49.80892" lon="2.06877">
        <ele>142.5</ele>
        <time>2013-11-24T09:41:13Z</time>
      </trkpt>
      <trkpt lat="49.80886" lon="2.06855">
        <ele>138.7</ele>
        <time>2013-11-24T09:41:23Z</time>
      </trkpt>
      <trkpt lat="49.80886" lon="2.06833">
        <ele>136.3</ele>
        <time>2013-11-24T09:41:31Z</time>
      </trkpt>
      <trkpt lat="49.8089" lon="2.06811">
        <ele>139.8</ele>
        <time>2013-11-24T09:41:42Z</time>
      </trkpt>
      <trkpt lat="49.80891" lon="2.06787">
        <ele>144.2</ele>
        <time>2013-11-24T09:41:49Z</time>
      </trkpt>
      <trkpt lat="49.80891" lon="2.06765">
        <ele>145.4</ele>
        <time>2013-11-24T09:41:59Z</time>
      </trkpt>
      <trkpt lat="49.80898" lon="2.06747">
        <ele>145.8</ele>
        <time>2013-11-24T09:42:10Z</time>
      </trkpt>
      <trkpt lat="49.80905" lon="2.06729">
        <ele>145.4</ele>
        <time>2013-11-24T09:42:21Z</time>
      </trkpt>
      <trkpt lat="49.80915" lon="2.06714">
        <ele>145</ele>
        <time>2013-11-24T09:42:30Z</time>
      </trkpt>
      <trkpt lat="49.80921" lon="2.06694">
        <ele>146.6</ele>
        <time>2013-11-24T09:42:40Z</time>
      </trkpt>
      <trkpt lat="49.80929" lon="2.06677">
        <ele>149.6</ele>
        <time>2013-11-24T09:42:49Z</time>
      </trkpt>
      <trkpt lat="49.80933" lon="2.06656">
        <ele>150.5</ele>
        <time>2013-11-24T09:42:58Z</time>
      </trkpt>
      <trkpt lat="49.80936" lon="2.06635">
        <ele>149.5</ele>
        <time>2013-11-24T09:43:08Z</time>
      </trkpt>
      <trkpt lat="49.80934" lon="2.06614">
        <ele>148.9</ele>
        <time>2013-11-24T09:43:14Z</time>
      </trkpt>
      <trkpt lat="49.80936" lon="2.06592">
        <ele>147.2</ele>
        <time>2013-11-24T09:43:30Z</time>
      </trkpt>
      <trkpt lat="49.80935" lon="2.06571">
        <ele>146</ele>
        <time>2013-11-24T09:43:41Z</time>
      </trkpt>
      <trkpt lat="49.80935" lon="2.06549">
        <ele>144.6</ele>
        <time>2013-11-24T09:43:54Z</time>
      </trkpt>
      <trkpt lat="49.80933" lon="2.06527">
        <ele>143.6</ele>
        <time>2013-11-24T09:44:03Z</time>
      </trkpt>
      <trkpt lat="49.80932" lon="2.06506">
        <ele>144.8</ele>
        <time>2013-11-24T09:44:13Z</time>
      </trkpt>
      <trkpt lat="49.80928" lon="2.06485">
        <ele>148.4</ele>
        <time>2013-11-24T09:44:23Z</time>
      </trkpt>
      <trkpt lat="49.8093" lon="2.06463">
        <ele>147.7</ele>
        <time>2013-11-24T09:44:31Z</time>
      </trkpt>
      <trkpt lat="49.80933" lon="2.06442">
        <ele>145.8</ele>
        <time>2013-11-24T09:44:40Z</time>
      </trkpt>
      <trkpt lat="49.8093" lon="2.06421">
        <ele>144.1</ele>
        <time>2013-11-24T09:44:49Z</time>
      </trkpt>
      <trkpt lat="49.80931" lon="2.06399">
        <ele>144.6</ele>
        <time>2013-11-24T09:44:58Z</time>
      </trkpt>
      <trkpt lat="49.80934" lon="2.06379">
        <ele>145.1</ele>
        <time>2013-11-24T09:45:07Z</time>
      </trkpt>
      <trkpt lat="49.80939" lon="2.06359">
        <ele>146.1</ele>
        <time>2013-11-24T09:45:25Z</time>
      </trkpt>
      <trkpt lat="49.8094" lon="2.06338">
        <ele>146.5</ele>
        <time>2013-11-24T09:45:32Z</time>
      </trkpt>
      <trkpt lat="49.80938" lon="2.06315">
        <ele>146.8</ele>
        <time>2013-11-24T09:45:38Z</time>
      </trkpt>
      <trkpt lat="49.80941" lon="2.06292">
        <ele>147.3</ele>
        <time>2013-11-24T09:45:46Z</time>
      </trkpt>
      <trkpt lat="49.80946" lon="2.0627">
        <ele>147.8</ele>
        <time>2013-11-24T09:45:55Z</time>
      </trkpt>
      <trkpt lat="49.80953" lon="2.06251">
        <ele>145.6</ele>
        <time>2013-11-24T09:46:05Z</time>
      </trkpt>
      <trkpt lat="49.80963" lon="2.06235">
        <ele>145.7</ele>
        <time>2013-11-24T09:46:15Z</time>
      </trkpt>
      <trkpt lat="49.8097" lon="2.06217">
        <ele>145.4</ele>
        <time>2013-11-24T09:46:23Z</time>
      </trkpt>
      <trkpt lat="49.80981" lon="2.06204">
        <ele>140.9</ele>
        <time>2013-11-24T09:46:34Z</time>
      </trkpt>
      <trkpt lat="49.80992" lon="2.06191">
        <ele>138.3</ele>
        <time>2013-11-24T09:46:47Z</time>
      </trkpt>
      <trkpt lat="49.80999" lon="2.0617">
        <ele>137</ele>
        <time>2013-11-24T09:46:57Z</time>
      </trkpt>
      <trkpt lat="49.81006" lon="2.0615">
        <ele>133.9</ele>
        <time>2013-11-24T09:47:07Z</time>
      </trkpt>
      <trkpt lat="49.81019" lon="2.0612">
        <ele>136.9</ele>
        <time>2013-11-24T09:47:22Z</time>
      </trkpt>
      <trkpt lat="49.81019" lon="2.0612">
        <ele>136.9</ele>
        <time>2013-11-24T09:49:30Z</time>
      </trkpt>
      <trkpt lat="49.81024" lon="2.06107">
        <ele>138.8</ele>
        <time>2013-11-24T09:49:30Z</time>
      </trkpt>
      <trkpt lat="49.81029" lon="2.06087">
        <ele>139.4</ele>
        <time>2013-11-24T09:49:39Z</time>
      </trkpt>
      <trkpt lat="49.81033" lon="2.06066">
        <ele>140.4</ele>
        <time>2013-11-24T09:49:53Z</time>
      </trkpt>
      <trkpt lat="49.81038" lon="2.06045">
        <ele>141.8</ele>
        <time>2013-11-24T09:50:05Z</time>
      </trkpt>
      <trkpt lat="49.81051" lon="2.06037">
        <ele>140.9</ele>
        <time>2013-11-24T09:50:29Z</time>
      </trkpt>
      <trkpt lat="49.81059" lon="2.06018">
        <ele>140.8</ele>
        <time>2013-11-24T09:50:41Z</time>
      </trkpt>
      <trkpt lat="49.81068" lon="2.06002">
        <ele>142.4</ele>
        <time>2013-11-24T09:50:56Z</time>
      </trkpt>
      <trkpt lat="49.81099" lon="2.05972">
        <ele>142</ele>
        <time>2013-11-24T09:51:17Z</time>
      </trkpt>
      <trkpt lat="49.81099" lon="2.05972">
        <ele>142</ele>
        <time>2013-11-24T09:52:42Z</time>
      </trkpt>
      <trkpt lat="49.81119" lon="2.05957">
        <ele>140.3</ele>
        <time>2013-11-24T09:52:51Z</time>
      </trkpt>
      <trkpt lat="49.81128" lon="2.0594">
        <ele>140.9</ele>
        <time>2013-11-24T09:53:04Z</time>
      </trkpt>
      <trkpt lat="49.81138" lon="2.05924">
        <ele>142</ele>
        <time>2013-11-24T09:53:25Z</time>
      </trkpt>
      <trkpt lat="49.81147" lon="2.05906">
        <ele>142.6</ele>
        <time>2013-11-24T09:53:38Z</time>
      </trkpt>
      <trkpt lat="49.81159" lon="2.05895">
        <ele>141.3</ele>
        <time>2013-11-24T09:53:52Z</time>
      </trkpt>
      <trkpt lat="49.81188" lon="2.0586">
        <ele>137.9</ele>
        <time>2013-11-24T09:54:19Z</time>
      </trkpt>
      <trkpt lat="49.81188" lon="2.0586">
        <ele>137.9</ele>
        <time>2013-11-24T09:55:56Z</time>
      </trkpt>
      <trkpt lat="49.81206" lon="2.05837">
        <ele>138.5</ele>
        <time>2013-11-24T09:56:00Z</time>
      </trkpt>
      <trkpt lat="49.81217" lon="2.05825">
        <ele>141</ele>
        <time>2013-11-24T09:56:09Z</time>
      </trkpt>
      <trkpt lat="49.81229" lon="2.05812">
        <ele>143.2</ele>
        <time>2013-11-24T09:56:19Z</time>
      </trkpt>
      <trkpt lat="49.81239" lon="2.05798">
        <ele>145.8</ele>
        <time>2013-11-24T09:56:30Z</time>
      </trkpt>
      <trkpt lat="49.81241" lon="2.05776">
        <ele>148.3</ele>
        <time>2013-11-24T09:56:39Z</time>
      </trkpt>
      <trkpt lat="49.81232" lon="2.0576">
        <ele>151.2</ele>
        <time>2013-11-24T09:56:49Z</time>
      </trkpt>
      <trkpt lat="49.81224" lon="2.05743">
        <ele>153.3</ele>
        <time>2013-11-24T09:56:59Z</time>
      </trkpt>
      <trkpt lat="49.81215" lon="2.05726">
        <ele>155</ele>
        <time>2013-11-24T09:57:08Z</time>
      </trkpt>
      <trkpt lat="49.81206" lon="2.0571">
        <ele>151.7</ele>
        <time>2013-11-24T09:57:20Z</time>
      </trkpt>
      <trkpt lat="49.81198" lon="2.05691">
        <ele>147.7</ele>
        <time>2013-11-24T09:57:32Z</time>
      </trkpt>
      <trkpt lat="49.8119" lon="2.05674">
        <ele>144.6</ele>
        <time>2013-11-24T09:57:45Z</time>
      </trkpt>
      <trkpt lat="49.81181" lon="2.05656">
        <ele>142.7</ele>
        <time>2013-11-24T09:57:58Z</time>
      </trkpt>
      <trkpt lat="49.81173" lon="2.05638">
        <ele>142.3</ele>
        <time>2013-11-24T09:58:08Z</time>
      </trkpt>
      <trkpt lat="49.81164" lon="2.05621">
        <ele>141.8</ele>
        <time>2013-11-24T09:58:18Z</time>
      </trkpt>
      <trkpt lat="49.81155" lon="2.05605">
        <ele>141.3</ele>
        <time>2013-11-24T09:58:29Z</time>
      </trkpt>
      <trkpt lat="49.81148" lon="2.05587">
        <ele>144.2</ele>
        <time>2013-11-24T09:58:40Z</time>
      </trkpt>
      <trkpt lat="49.81138" lon="2.0557">
        <ele>141.4</ele>
        <time>2013-11-24T09:58:50Z</time>
      </trkpt>
      <trkpt lat="49.81127" lon="2.05557">
        <ele>139.6</ele>
        <time>2013-11-24T09:59:00Z</time>
      </trkpt>
      <trkpt lat="49.8112" lon="2.05539">
        <ele>137.6</ele>
        <time>2013-11-24T09:59:12Z</time>
      </trkpt>
      <trkpt lat="49.81113" lon="2.05521">
        <ele>136.3</ele>
        <time>2013-11-24T09:59:21Z</time>
      </trkpt>
      <trkpt lat="49.81105" lon="2.05502">
        <ele>134.7</ele>
        <time>2013-11-24T09:59:32Z</time>
      </trkpt>
      <trkpt lat="49.81099" lon="2.05481">
        <ele>135.7</ele>
        <time>2013-11-24T09:59:42Z</time>
      </trkpt>
      <trkpt lat="49.81096" lon="2.0546">
        <ele>136.1</ele>
        <time>2013-11-24T09:59:52Z</time>
      </trkpt>
      <trkpt lat="49.81098" lon="2.05438">
        <ele>139.4</ele>
        <time>2013-11-24T10:00:05Z</time>
      </trkpt>
      <trkpt lat="49.81097" lon="2.05412">
        <ele>141.5</ele>
        <time>2013-11-24T10:00:14Z</time>
      </trkpt>
      <trkpt lat="49.81103" lon="2.05392">
        <ele>138.6</ele>
        <time>2013-11-24T10:00:29Z</time>
      </trkpt>
      <trkpt lat="49.81108" lon="2.05371">
        <ele>138.1</ele>
        <time>2013-11-24T10:00:40Z</time>
      </trkpt>
      <trkpt lat="49.81106" lon="2.05349">
        <ele>137.5</ele>
        <time>2013-11-24T10:00:53Z</time>
      </trkpt>
      <trkpt lat="49.81099" lon="2.05331">
        <ele>137.1</ele>
        <time>2013-11-24T10:01:02Z</time>
      </trkpt>
      <trkpt lat="49.81093" lon="2.05312">
        <ele>136.6</ele>
        <time>2013-11-24T10:01:13Z</time>
      </trkpt>
      <trkpt lat="49.81089" lon="2.05289">
        <ele>136.2</ele>
        <time>2013-11-24T10:01:21Z</time>
      </trkpt>
      <trkpt lat="49.81086" lon="2.05266">
        <ele>135.6</ele>
        <time>2013-11-24T10:01:28Z</time>
      </trkpt>
      <trkpt lat="49.81086" lon="2.05245">
        <ele>133.5</ele>
        <time>2013-11-24T10:01:44Z</time>
      </trkpt>
      <trkpt lat="49.81078" lon="2.05225">
        <ele>132.5</ele>
        <time>2013-11-24T10:01:53Z</time>
      </trkpt>
      <trkpt lat="49.81072" lon="2.05205">
        <ele>131.8</ele>
        <time>2013-11-24T10:02:01Z</time>
      </trkpt>
      <trkpt lat="49.81066" lon="2.05185">
        <ele>131</ele>
        <time>2013-11-24T10:02:10Z</time>
      </trkpt>
      <trkpt lat="49.8106" lon="2.05165">
        <ele>128.3</ele>
        <time>2013-11-24T10:02:20Z</time>
      </trkpt>
      <trkpt lat="49.81051" lon="2.05145">
        <ele>125.5</ele>
        <time>2013-11-24T10:02:28Z</time>
      </trkpt>
      <trkpt lat="49.81046" lon="2.05124">
        <ele>122.4</ele>
        <time>2013-11-24T10:02:36Z</time>
      </trkpt>
      <trkpt lat="49.8105" lon="2.05103">
        <ele>116.7</ele>
        <time>2013-11-24T10:02:48Z</time>
      </trkpt>
      <trkpt lat="49.81049" lon="2.05081">
        <ele>116</ele>
        <time>2013-11-24T10:02:57Z</time>
      </trkpt>
      <trkpt lat="49.81054" lon="2.0506">
        <ele>120</ele>
        <time>2013-11-24T10:03:05Z</time>
      </trkpt>
      <trkpt lat="49.81058" lon="2.05039">
        <ele>123</ele>
        <time>2013-11-24T10:03:14Z</time>
      </trkpt>
      <trkpt lat="49.81064" lon="2.0502">
        <ele>120.1</ele>
        <time>2013-11-24T10:03:28Z</time>
      </trkpt>
      <trkpt lat="49.81064" lon="2.04998">
        <ele>120.9</ele>
        <time>2013-11-24T10:03:39Z</time>
      </trkpt>
      <trkpt lat="49.81066" lon="2.04977">
        <ele>121.6</ele>
        <time>2013-11-24T10:03:49Z</time>
      </trkpt>
      <trkpt lat="49.81068" lon="2.04955">
        <ele>118.8</ele>
        <time>2013-11-24T10:04:03Z</time>
      </trkpt>
      <trkpt lat="49.81075" lon="2.04936">
        <ele>118.1</ele>
        <time>2013-11-24T10:04:13Z</time>
      </trkpt>
      <trkpt lat="49.81081" lon="2.04916">
        <ele>117.1</ele>
        <time>2013-11-24T10:04:27Z</time>
      </trkpt>
      <trkpt lat="49.81086" lon="2.04896">
        <ele>116.4</ele>
        <time>2013-11-24T10:04:37Z</time>
      </trkpt>
      <trkpt lat="49.81086" lon="2.04873">
        <ele>115.8</ele>
        <time>2013-11-24T10:04:46Z</time>
      </trkpt>
      <trkpt lat="49.81089" lon="2.04853">
        <ele>114.7</ele>
        <time>2013-11-24T10:04:58Z</time>
      </trkpt>
      <trkpt lat="49.81099" lon="2.04837">
        <ele>111.8</ele>
        <time>2013-11-24T10:05:11Z</time>
      </trkpt>
      <trkpt lat="49.81107" lon="2.04819">
        <ele>111.3</ele>
        <time>2013-11-24T10:05:20Z</time>
      </trkpt>
      <trkpt lat="49.8112" lon="2.0481">
        <ele>110.8</ele>
        <time>2013-11-24T10:05:28Z</time>
      </trkpt>
      <trkpt lat="49.81135" lon="2.04806">
        <ele>110.3</ele>
        <time>2013-11-24T10:05:37Z</time>
      </trkpt>
      <trkpt lat="49.8115" lon="2.04805">
        <ele>109.6</ele>
        <time>2013-11-24T10:05:50Z</time>
      </trkpt>
      <trkpt lat="49.8116" lon="2.04791">
        <ele>109</ele>
        <time>2013-11-24T10:06:00Z</time>
      </trkpt>
      <trkpt lat="49.81165" lon="2.0477">
        <ele>107.1</ele>
        <time>2013-11-24T10:06:10Z</time>
      </trkpt>
      <trkpt lat="49.81174" lon="2.0476">
        <ele>105.9</ele>
        <time>2013-11-24T10:06:17Z</time>
      </trkpt>
      <trkpt lat="49.81187" lon="2.04753">
        <ele>105.2</ele>
        <time>2013-11-24T10:06:29Z</time>
      </trkpt>
      <trkpt lat="49.81201" lon="2.0475">
        <ele>105.8</ele>
        <time>2013-11-24T10:06:39Z</time>
      </trkpt>
      <trkpt lat="49.81216" lon="2.04745">
        <ele>105.8</ele>
        <time>2013-11-24T10:06:48Z</time>
      </trkpt>
      <trkpt lat="49.81228" lon="2.04736">
        <ele>107.2</ele>
        <time>2013-11-24T10:06:58Z</time>
      </trkpt>
      <trkpt lat="49.81241" lon="2.04728">
        <ele>108.7</ele>
        <time>2013-11-24T10:07:09Z</time>
      </trkpt>
      <trkpt lat="49.81255" lon="2.04722">
        <ele>109.9</ele>
        <time>2013-11-24T10:07:17Z</time>
      </trkpt>
      <trkpt lat="49.81267" lon="2.04711">
        <ele>111.4</ele>
        <time>2013-11-24T10:07:27Z</time>
      </trkpt>
      <trkpt lat="49.81275" lon="2.04708">
        <ele>112.4</ele>
        <time>2013-11-24T10:07:34Z</time>
      </trkpt>
      <trkpt lat="49.81286" lon="2.04695">
        <ele>111.8</ele>
        <time>2013-11-24T10:07:47Z</time>
      </trkpt>
      <trkpt lat="49.81292" lon="2.04675">
        <ele>110.1</ele>
        <time>2013-11-24T10:08:00Z</time>
      </trkpt>
      <trkpt lat="49.81296" lon="2.04654">
        <ele>110.7</ele>
        <time>2013-11-24T10:08:09Z</time>
      </trkpt>
      <trkpt lat="49.81298" lon="2.04633">
        <ele>111.5</ele>
        <time>2013-11-24T10:08:18Z</time>
      </trkpt>
      <trkpt lat="49.81305" lon="2.04614">
        <ele>112.4</ele>
        <time>2013-11-24T10:08:28Z</time>
      </trkpt>
      <trkpt lat="49.81299" lon="2.04595">
        <ele>113.4</ele>
        <time>2013-11-24T10:08:38Z</time>
      </trkpt>
      <trkpt lat="49.81291" lon="2.04577">
        <ele>115.2</ele>
        <time>2013-11-24T10:08:47Z</time>
      </trkpt>
      <trkpt lat="49.81283" lon="2.0456">
        <ele>117.9</ele>
        <time>2013-11-24T10:08:58Z</time>
      </trkpt>
      <trkpt lat="49.81279" lon="2.04539">
        <ele>119.1</ele>
        <time>2013-11-24T10:09:09Z</time>
      </trkpt>
      <trkpt lat="49.81268" lon="2.04522">
        <ele>120.6</ele>
        <time>2013-11-24T10:09:18Z</time>
      </trkpt>
      <trkpt lat="49.81262" lon="2.04503">
        <ele>124.7</ele>
        <time>2013-11-24T10:09:27Z</time>
      </trkpt>
      <trkpt lat="49.81263" lon="2.04481">
        <ele>127.5</ele>
        <time>2013-11-24T10:09:37Z</time>
      </trkpt>
      <trkpt lat="49.81264" lon="2.04461">
        <ele>128.2</ele>
        <time>2013-11-24T10:09:45Z</time>
      </trkpt>
      <trkpt lat="49.81251" lon="2.04454">
        <ele>130.4</ele>
        <time>2013-11-24T10:10:00Z</time>
      </trkpt>
      <trkpt lat="49.81235" lon="2.0445">
        <ele>128.9</ele>
        <time>2013-11-24T10:10:13Z</time>
      </trkpt>
      <trkpt lat="49.81235" lon="2.0445">
        <ele>128.9</ele>
        <time>2013-11-24T10:17:37Z</time>
      </trkpt>
      <trkpt lat="49.81233" lon="2.04452">
        <ele>128.7</ele>
        <time>2013-11-24T10:17:37Z</time>
      </trkpt>
      <trkpt lat="49.81227" lon="2.04454">
        <ele>128.2</ele>
        <time>2013-11-24T10:17:40Z</time>
      </trkpt>
      <trkpt lat="49.81237" lon="2.04444">
        <ele>126.4</ele>
        <time>2013-11-24T10:17:54Z</time>
      </trkpt>
      <trkpt lat="49.81237" lon="2.04444">
        <ele>126.4</ele>
        <time>2013-11-24T10:26:43Z</time>
      </trkpt>
      <trkpt lat="49.81242" lon="2.04443">
        <ele>126.2</ele>
        <time>2013-11-24T10:26:45Z</time>
      </trkpt>
      <trkpt lat="49.81244" lon="2.04444">
        <ele>126.2</ele>
        <time>2013-11-24T10:26:46Z</time>
      </trkpt>
      <trkpt lat="49.81248" lon="2.04424">
        <ele>128.5</ele>
        <time>2013-11-24T10:26:53Z</time>
      </trkpt>
      <trkpt lat="49.81237" lon="2.0441">
        <ele>130.6</ele>
        <time>2013-11-24T10:27:02Z</time>
      </trkpt>
      <trkpt lat="49.81226" lon="2.04395">
        <ele>129.5</ele>
        <time>2013-11-24T10:27:11Z</time>
      </trkpt>
      <trkpt lat="49.81224" lon="2.04387">
        <ele>129</ele>
        <time>2013-11-24T10:27:16Z</time>
      </trkpt>
      <trkpt lat="49.8123" lon="2.04367">
        <ele>127.8</ele>
        <time>2013-11-24T10:27:26Z</time>
      </trkpt>
      <trkpt lat="49.81234" lon="2.04345">
        <ele>125.4</ele>
        <time>2013-11-24T10:27:36Z</time>
      </trkpt>
      <trkpt lat="49.81235" lon="2.04324">
        <ele>123</ele>
        <time>2013-11-24T10:27:46Z</time>
      </trkpt>
      <trkpt lat="49.81233" lon="2.04303">
        <ele>121.5</ele>
        <time>2013-11-24T10:27:57Z</time>
      </trkpt>
      <trkpt lat="49.81236" lon="2.04281">
        <ele>120.7</ele>
        <time>2013-11-24T10:28:11Z</time>
      </trkpt>
      <trkpt lat="49.81225" lon="2.04267">
        <ele>122.7</ele>
        <time>2013-11-24T10:28:20Z</time>
      </trkpt>
      <trkpt lat="49.81224" lon="2.04245">
        <ele>124.5</ele>
        <time>2013-11-24T10:28:28Z</time>
      </trkpt>
      <trkpt lat="49.81221" lon="2.04223">
        <ele>128.3</ele>
        <time>2013-11-24T10:28:38Z</time>
      </trkpt>
      <trkpt lat="49.81216" lon="2.04202">
        <ele>129.8</ele>
        <time>2013-11-24T10:28:49Z</time>
      </trkpt>
      <trkpt lat="49.81211" lon="2.04181">
        <ele>131</ele>
        <time>2013-11-24T10:28:59Z</time>
      </trkpt>
      <trkpt lat="49.81206" lon="2.04162">
        <ele>131.6</ele>
        <time>2013-11-24T10:29:08Z</time>
      </trkpt>
      <trkpt lat="49.81203" lon="2.0414">
        <ele>133.4</ele>
        <time>2013-11-24T10:29:21Z</time>
      </trkpt>
      <trkpt lat="49.81202" lon="2.04119">
        <ele>134.3</ele>
        <time>2013-11-24T10:29:29Z</time>
      </trkpt>
      <trkpt lat="49.81209" lon="2.04099">
        <ele>136.6</ele>
        <time>2013-11-24T10:29:41Z</time>
      </trkpt>
      <trkpt lat="49.81218" lon="2.04081">
        <ele>140.7</ele>
        <time>2013-11-24T10:29:52Z</time>
      </trkpt>
      <trkpt lat="49.81228" lon="2.04065">
        <ele>142.8</ele>
        <time>2013-11-24T10:30:03Z</time>
      </trkpt>
      <trkpt lat="49.81239" lon="2.04052">
        <ele>141.3</ele>
        <time>2013-11-24T10:30:14Z</time>
      </trkpt>
      <trkpt lat="49.81251" lon="2.04041">
        <ele>140.3</ele>
        <time>2013-11-24T10:30:24Z</time>
      </trkpt>
      <trkpt lat="49.81263" lon="2.0403">
        <ele>139.9</ele>
        <time>2013-11-24T10:30:35Z</time>
      </trkpt>
      <trkpt lat="49.81278" lon="2.04028">
        <ele>138.2</ele>
        <time>2013-11-24T10:30:45Z</time>
      </trkpt>
      <trkpt lat="49.81291" lon="2.04026">
        <ele>137.7</ele>
        <time>2013-11-24T10:30:53Z</time>
      </trkpt>
      <trkpt lat="49.81305" lon="2.04018">
        <ele>137.3</ele>
        <time>2013-11-24T10:31:02Z</time>
      </trkpt>
      <trkpt lat="49.81316" lon="2.04005">
        <ele>136.9</ele>
        <time>2013-11-24T10:31:12Z</time>
      </trkpt>
      <trkpt lat="49.81326" lon="2.03988">
        <ele>136.5</ele>
        <time>2013-11-24T10:31:22Z</time>
      </trkpt>
      <trkpt lat="49.81337" lon="2.03972">
        <ele>136.1</ele>
        <time>2013-11-24T10:31:32Z</time>
      </trkpt>
      <trkpt lat="49.81347" lon="2.0396">
        <ele>135.8</ele>
        <time>2013-11-24T10:31:40Z</time>
      </trkpt>
      <trkpt lat="49.81359" lon="2.03947">
        <ele>135.4</ele>
        <time>2013-11-24T10:31:49Z</time>
      </trkpt>
      <trkpt lat="49.81371" lon="2.03935">
        <ele>135</ele>
        <time>2013-11-24T10:31:59Z</time>
      </trkpt>
      <trkpt lat="49.81384" lon="2.03926">
        <ele>135.2</ele>
        <time>2013-11-24T10:32:08Z</time>
      </trkpt>
      <trkpt lat="49.81397" lon="2.03918">
        <ele>135.5</ele>
        <time>2013-11-24T10:32:18Z</time>
      </trkpt>
      <trkpt lat="49.8141" lon="2.03909">
        <ele>135.7</ele>
        <time>2013-11-24T10:32:27Z</time>
      </trkpt>
      <trkpt lat="49.81424" lon="2.03906">
        <ele>136</ele>
        <time>2013-11-24T10:32:37Z</time>
      </trkpt>
      <trkpt lat="49.81437" lon="2.03901">
        <ele>136.3</ele>
        <time>2013-11-24T10:32:45Z</time>
      </trkpt>
      <trkpt lat="49.81451" lon="2.039">
        <ele>136.5</ele>
        <time>2013-11-24T10:32:55Z</time>
      </trkpt>
      <trkpt lat="49.81465" lon="2.039">
        <ele>136.8</ele>
        <time>2013-11-24T10:33:05Z</time>
      </trkpt>
      <trkpt lat="49.81479" lon="2.03901">
        <ele>137.1</ele>
        <time>2013-11-24T10:33:14Z</time>
      </trkpt>
      <trkpt lat="49.81493" lon="2.03907">
        <ele>137.3</ele>
        <time>2013-11-24T10:33:24Z</time>
      </trkpt>
      <trkpt lat="49.81507" lon="2.03914">
        <ele>137.6</ele>
        <time>2013-11-24T10:33:33Z</time>
      </trkpt>
      <trkpt lat="49.81522" lon="2.03917">
        <ele>137.9</ele>
        <time>2013-11-24T10:33:43Z</time>
      </trkpt>
      <trkpt lat="49.81536" lon="2.03912">
        <ele>140.5</ele>
        <time>2013-11-24T10:33:52Z</time>
      </trkpt>
      <trkpt lat="49.81549" lon="2.03905">
        <ele>140.5</ele>
        <time>2013-11-24T10:33:59Z</time>
      </trkpt>
      <trkpt lat="49.81559" lon="2.03901">
        <ele>142.5</ele>
        <time>2013-11-24T10:34:12Z</time>
      </trkpt>
      <trkpt lat="49.81569" lon="2.03884">
        <ele>144.6</ele>
        <time>2013-11-24T10:34:19Z</time>
      </trkpt>
      <trkpt lat="49.81579" lon="2.03869">
        <ele>146</ele>
        <time>2013-11-24T10:34:29Z</time>
      </trkpt>
      <trkpt lat="49.8159" lon="2.03853">
        <ele>147.4</ele>
        <time>2013-11-24T10:34:39Z</time>
      </trkpt>
      <trkpt lat="49.81602" lon="2.03839">
        <ele>150.1</ele>
        <time>2013-11-24T10:34:49Z</time>
      </trkpt>
      <trkpt lat="49.81613" lon="2.03826">
        <ele>151.6</ele>
        <time>2013-11-24T10:34:58Z</time>
      </trkpt>
      <trkpt lat="49.81626" lon="2.03818">
        <ele>150.8</ele>
        <time>2013-11-24T10:35:09Z</time>
      </trkpt>
      <trkpt lat="49.81637" lon="2.03804">
        <ele>150</ele>
        <time>2013-11-24T10:35:18Z</time>
      </trkpt>
      <trkpt lat="49.8165" lon="2.03791">
        <ele>148.6</ele>
        <time>2013-11-24T10:35:26Z</time>
      </trkpt>
      <trkpt lat="49.81663" lon="2.03791">
        <ele>146.9</ele>
        <time>2013-11-24T10:35:36Z</time>
      </trkpt>
      <trkpt lat="49.81677" lon="2.03796">
        <ele>145.6</ele>
        <time>2013-11-24T10:35:43Z</time>
      </trkpt>
      <trkpt lat="49.81691" lon="2.03802">
        <ele>143.5</ele>
        <time>2013-11-24T10:35:53Z</time>
      </trkpt>
      <trkpt lat="49.81704" lon="2.03809">
        <ele>139.4</ele>
        <time>2013-11-24T10:36:02Z</time>
      </trkpt>
      <trkpt lat="49.81717" lon="2.03817">
        <ele>135.5</ele>
        <time>2013-11-24T10:36:13Z</time>
      </trkpt>
      <trkpt lat="49.81731" lon="2.03817">
        <ele>136.8</ele>
        <time>2013-11-24T10:36:22Z</time>
      </trkpt>
      <trkpt lat="49.81746" lon="2.03818">
        <ele>136.9</ele>
        <time>2013-11-24T10:36:33Z</time>
      </trkpt>
      <trkpt lat="49.81759" lon="2.03816">
        <ele>135.8</ele>
        <time>2013-11-24T10:36:41Z</time>
      </trkpt>
      <trkpt lat="49.81773" lon="2.03814">
        <ele>134.4</ele>
        <time>2013-11-24T10:36:50Z</time>
      </trkpt>
      <trkpt lat="49.81787" lon="2.03819">
        <ele>134</ele>
        <time>2013-11-24T10:37:00Z</time>
      </trkpt>
      <trkpt lat="49.81802" lon="2.03821">
        <ele>134.2</ele>
        <time>2013-11-24T10:37:08Z</time>
      </trkpt>
      <trkpt lat="49.81816" lon="2.03821">
        <ele>134.8</ele>
        <time>2013-11-24T10:37:19Z</time>
      </trkpt>
      <trkpt lat="49.8183" lon="2.03823">
        <ele>135.1</ele>
        <time>2013-11-24T10:37:26Z</time>
      </trkpt>
      <trkpt lat="49.81844" lon="2.03831">
        <ele>135.7</ele>
        <time>2013-11-24T10:37:37Z</time>
      </trkpt>
      <trkpt lat="49.81856" lon="2.03843">
        <ele>136.2</ele>
        <time>2013-11-24T10:37:47Z</time>
      </trkpt>
      <trkpt lat="49.81871" lon="2.03852">
        <ele>136.7</ele>
        <time>2013-11-24T10:37:56Z</time>
      </trkpt>
      <trkpt lat="49.81883" lon="2.03864">
        <ele>137.1</ele>
        <time>2013-11-24T10:38:04Z</time>
      </trkpt>
      <trkpt lat="49.81892" lon="2.03881">
        <ele>137.7</ele>
        <time>2013-11-24T10:38:16Z</time>
      </trkpt>
      <trkpt lat="49.81903" lon="2.03896">
        <ele>137</ele>
        <time>2013-11-24T10:38:25Z</time>
      </trkpt>
      <trkpt lat="49.81913" lon="2.03912">
        <ele>133.4</ele>
        <time>2013-11-24T10:38:35Z</time>
      </trkpt>
      <trkpt lat="49.81921" lon="2.03928">
        <ele>128.5</ele>
        <time>2013-11-24T10:38:43Z</time>
      </trkpt>
      <trkpt lat="49.8193" lon="2.03944">
        <ele>125</ele>
        <time>2013-11-24T10:38:52Z</time>
      </trkpt>
      <trkpt lat="49.8194" lon="2.0396">
        <ele>122</ele>
        <time>2013-11-24T10:39:01Z</time>
      </trkpt>
      <trkpt lat="49.81951" lon="2.03976">
        <ele>125.6</ele>
        <time>2013-11-24T10:39:12Z</time>
      </trkpt>
      <trkpt lat="49.81961" lon="2.03991">
        <ele>129.6</ele>
        <time>2013-11-24T10:39:23Z</time>
      </trkpt>
      <trkpt lat="49.81969" lon="2.04009">
        <ele>132.2</ele>
        <time>2013-11-24T10:39:37Z</time>
      </trkpt>
      <trkpt lat="49.81975" lon="2.04028">
        <ele>132.7</ele>
        <time>2013-11-24T10:39:48Z</time>
      </trkpt>
      <trkpt lat="49.81985" lon="2.04045">
        <ele>133</ele>
        <time>2013-11-24T10:39:59Z</time>
      </trkpt>
      <trkpt lat="49.81997" lon="2.04054">
        <ele>133</ele>
        <time>2013-11-24T10:40:07Z</time>
      </trkpt>
      <trkpt lat="49.82009" lon="2.04067">
        <ele>132.4</ele>
        <time>2013-11-24T10:40:16Z</time>
      </trkpt>
      <trkpt lat="49.82019" lon="2.04082">
        <ele>131.4</ele>
        <time>2013-11-24T10:40:25Z</time>
      </trkpt>
      <trkpt lat="49.82025" lon="2.04101">
        <ele>130.2</ele>
        <time>2013-11-24T10:40:36Z</time>
      </trkpt>
      <trkpt lat="49.82034" lon="2.0412">
        <ele>131.6</ele>
        <time>2013-11-24T10:40:47Z</time>
      </trkpt>
      <trkpt lat="49.82043" lon="2.04138">
        <ele>131.2</ele>
        <time>2013-11-24T10:40:58Z</time>
      </trkpt>
      <trkpt lat="49.82054" lon="2.04152">
        <ele>131.4</ele>
        <time>2013-11-24T10:41:10Z</time>
      </trkpt>
      <trkpt lat="49.82065" lon="2.04166">
        <ele>132.7</ele>
        <time>2013-11-24T10:41:19Z</time>
      </trkpt>
      <trkpt lat="49.82075" lon="2.04182">
        <ele>132.6</ele>
        <time>2013-11-24T10:41:29Z</time>
      </trkpt>
      <trkpt lat="49.82085" lon="2.04199">
        <ele>132.1</ele>
        <time>2013-11-24T10:41:38Z</time>
      </trkpt>
      <trkpt lat="49.82094" lon="2.04217">
        <ele>131.5</ele>
        <time>2013-11-24T10:41:49Z</time>
      </trkpt>
      <trkpt lat="49.82101" lon="2.04237">
        <ele>130.8</ele>
        <time>2013-11-24T10:42:01Z</time>
      </trkpt>
      <trkpt lat="49.82111" lon="2.04252">
        <ele>130.2</ele>
        <time>2013-11-24T10:42:13Z</time>
      </trkpt>
      <trkpt lat="49.82124" lon="2.04265">
        <ele>128.4</ele>
        <time>2013-11-24T10:42:22Z</time>
      </trkpt>
      <trkpt lat="49.82135" lon="2.04277">
        <ele>125.7</ele>
        <time>2013-11-24T10:42:34Z</time>
      </trkpt>
      <trkpt lat="49.82144" lon="2.04294">
        <ele>124</ele>
        <time>2013-11-24T10:42:43Z</time>
      </trkpt>
      <trkpt lat="49.82157" lon="2.04305">
        <ele>121.6</ele>
        <time>2013-11-24T10:42:53Z</time>
      </trkpt>
      <trkpt lat="49.82169" lon="2.04318">
        <ele>120.6</ele>
        <time>2013-11-24T10:43:02Z</time>
      </trkpt>
      <trkpt lat="49.82183" lon="2.04328">
        <ele>123</ele>
        <time>2013-11-24T10:43:10Z</time>
      </trkpt>
      <trkpt lat="49.82195" lon="2.04341">
        <ele>123</ele>
        <time>2013-11-24T10:43:18Z</time>
      </trkpt>
      <trkpt lat="49.82193" lon="2.04363">
        <ele>126</ele>
        <time>2013-11-24T10:43:26Z</time>
      </trkpt>
      <trkpt lat="49.82188" lon="2.04383">
        <ele>127.3</ele>
        <time>2013-11-24T10:43:34Z</time>
      </trkpt>
      <trkpt lat="49.8218" lon="2.04403">
        <ele>128.8</ele>
        <time>2013-11-24T10:43:43Z</time>
      </trkpt>
      <trkpt lat="49.82173" lon="2.04421">
        <ele>127.3</ele>
        <time>2013-11-24T10:43:51Z</time>
      </trkpt>
      <trkpt lat="49.82165" lon="2.04442">
        <ele>130.6</ele>
        <time>2013-11-24T10:44:03Z</time>
      </trkpt>
      <trkpt lat="49.82159" lon="2.04465">
        <ele>134.3</ele>
        <time>2013-11-24T10:44:08Z</time>
      </trkpt>
      <trkpt lat="49.82155" lon="2.04486">
        <ele>136.2</ele>
        <time>2013-11-24T10:44:15Z</time>
      </trkpt>
      <trkpt lat="49.82144" lon="2.04499">
        <ele>133</ele>
        <time>2013-11-24T10:44:29Z</time>
      </trkpt>
      <trkpt lat="49.82135" lon="2.04516">
        <ele>133.8</ele>
        <time>2013-11-24T10:44:41Z</time>
      </trkpt>
      <trkpt lat="49.82127" lon="2.04534">
        <ele>133.6</ele>
        <time>2013-11-24T10:44:55Z</time>
      </trkpt>
      <trkpt lat="49.8212" lon="2.04553">
        <ele>132.4</ele>
        <time>2013-11-24T10:45:04Z</time>
      </trkpt>
      <trkpt lat="49.82111" lon="2.0457">
        <ele>131.7</ele>
        <time>2013-11-24T10:45:13Z</time>
      </trkpt>
      <trkpt lat="49.82103" lon="2.0459">
        <ele>131.2</ele>
        <time>2013-11-24T10:45:23Z</time>
      </trkpt>
      <trkpt lat="49.82096" lon="2.04609">
        <ele>130.8</ele>
        <time>2013-11-24T10:45:32Z</time>
      </trkpt>
      <trkpt lat="49.82088" lon="2.04627">
        <ele>130.4</ele>
        <time>2013-11-24T10:45:41Z</time>
      </trkpt>
      <trkpt lat="49.82083" lon="2.04647">
        <ele>129.9</ele>
        <time>2013-11-24T10:45:51Z</time>
      </trkpt>
      <trkpt lat="49.82074" lon="2.04665">
        <ele>129.4</ele>
        <time>2013-11-24T10:46:01Z</time>
      </trkpt>
      <trkpt lat="49.82064" lon="2.0468">
        <ele>128.8</ele>
        <time>2013-11-24T10:46:10Z</time>
      </trkpt>
      <trkpt lat="49.82057" lon="2.04698">
        <ele>126.9</ele>
        <time>2013-11-24T10:46:20Z</time>
      </trkpt>
      <trkpt lat="49.82049" lon="2.04716">
        <ele>125.4</ele>
        <time>2013-11-24T10:46:28Z</time>
      </trkpt>
      <trkpt lat="49.82039" lon="2.04733">
        <ele>125</ele>
        <time>2013-11-24T10:46:36Z</time>
      </trkpt>
      <trkpt lat="49.82033" lon="2.04752">
        <ele>125</ele>
        <time>2013-11-24T10:46:43Z</time>
      </trkpt>
      <trkpt lat="49.82024" lon="2.04771">
        <ele>125</ele>
        <time>2013-11-24T10:46:54Z</time>
      </trkpt>
      <trkpt lat="49.82017" lon="2.04789">
        <ele>125.6</ele>
        <time>2013-11-24T10:47:02Z</time>
      </trkpt>
      <trkpt lat="49.82009" lon="2.04808">
        <ele>126.8</ele>
        <time>2013-11-24T10:47:14Z</time>
      </trkpt>
      <trkpt lat="49.82" lon="2.04825">
        <ele>127.6</ele>
        <time>2013-11-24T10:47:24Z</time>
      </trkpt>
      <trkpt lat="49.81992" lon="2.04842">
        <ele>128.3</ele>
        <time>2013-11-24T10:47:33Z</time>
      </trkpt>
      <trkpt lat="49.81987" lon="2.04862">
        <ele>130</ele>
        <time>2013-11-24T10:47:45Z</time>
      </trkpt>
      <trkpt lat="49.81983" lon="2.04883">
        <ele>131.4</ele>
        <time>2013-11-24T10:47:54Z</time>
      </trkpt>
      <trkpt lat="49.81973" lon="2.04901">
        <ele>127.2</ele>
        <time>2013-11-24T10:48:06Z</time>
      </trkpt>
      <trkpt lat="49.81966" lon="2.04922">
        <ele>125.6</ele>
        <time>2013-11-24T10:48:13Z</time>
      </trkpt>
      <trkpt lat="49.81954" lon="2.04933">
        <ele>123.5</ele>
        <time>2013-11-24T10:48:22Z</time>
      </trkpt>
      <trkpt lat="49.81944" lon="2.04949">
        <ele>120.2</ele>
        <time>2013-11-24T10:48:33Z</time>
      </trkpt>
      <trkpt lat="49.81938" lon="2.04969">
        <ele>117.6</ele>
        <time>2013-11-24T10:48:42Z</time>
      </trkpt>
      <trkpt lat="49.81931" lon="2.04988">
        <ele>115</ele>
        <time>2013-11-24T10:48:53Z</time>
      </trkpt>
      <trkpt lat="49.81925" lon="2.05008">
        <ele>113.5</ele>
        <time>2013-11-24T10:49:01Z</time>
      </trkpt>
      <trkpt lat="49.81916" lon="2.05026">
        <ele>112.1</ele>
        <time>2013-11-24T10:49:09Z</time>
      </trkpt>
      <trkpt lat="49.81908" lon="2.05044">
        <ele>110.2</ele>
        <time>2013-11-24T10:49:20Z</time>
      </trkpt>
      <trkpt lat="49.81899" lon="2.05061">
        <ele>108.9</ele>
        <time>2013-11-24T10:49:27Z</time>
      </trkpt>
      <trkpt lat="49.81895" lon="2.05084">
        <ele>107.9</ele>
        <time>2013-11-24T10:49:32Z</time>
      </trkpt>
      <trkpt lat="49.81885" lon="2.05099">
        <ele>103.6</ele>
        <time>2013-11-24T10:49:45Z</time>
      </trkpt>
      <trkpt lat="49.81876" lon="2.05118">
        <ele>102.4</ele>
        <time>2013-11-24T10:49:54Z</time>
      </trkpt>
      <trkpt lat="49.81867" lon="2.05135">
        <ele>101.1</ele>
        <time>2013-11-24T10:50:04Z</time>
      </trkpt>
      <trkpt lat="49.81859" lon="2.05152">
        <ele>98.8</ele>
        <time>2013-11-24T10:50:13Z</time>
      </trkpt>
      <trkpt lat="49.8185" lon="2.05169">
        <ele>97</ele>
        <time>2013-11-24T10:50:22Z</time>
      </trkpt>
      <trkpt lat="49.81844" lon="2.05189">
        <ele>95.7</ele>
        <time>2013-11-24T10:50:30Z</time>
      </trkpt>
      <trkpt lat="49.81839" lon="2.05209">
        <ele>94</ele>
        <time>2013-11-24T10:50:40Z</time>
      </trkpt>
      <trkpt lat="49.81828" lon="2.05222">
        <ele>92.3</ele>
        <time>2013-11-24T10:50:50Z</time>
      </trkpt>
      <trkpt lat="49.8182" lon="2.05244">
        <ele>92</ele>
        <time>2013-11-24T10:51:02Z</time>
      </trkpt>
      <trkpt lat="49.81818" lon="2.05266">
        <ele>92</ele>
        <time>2013-11-24T10:51:07Z</time>
      </trkpt>
      <trkpt lat="49.81811" lon="2.05286">
        <ele>92</ele>
        <time>2013-11-24T10:51:16Z</time>
      </trkpt>
      <trkpt lat="49.81799" lon="2.05299">
        <ele>91.7</ele>
        <time>2013-11-24T10:51:27Z</time>
      </trkpt>
      <trkpt lat="49.81777" lon="2.0529">
        <ele>92.3</ele>
        <time>2013-11-24T10:51:45Z</time>
      </trkpt>
      <trkpt lat="49.81777" lon="2.0529">
        <ele>92.3</ele>
        <time>2013-11-24T10:56:46Z</time>
      </trkpt>
      <trkpt lat="49.8177" lon="2.05281">
        <ele>94.1</ele>
        <time>2013-11-24T10:56:57Z</time>
      </trkpt>
      <trkpt lat="49.81755" lon="2.05276">
        <ele>94.4</ele>
        <time>2013-11-24T10:57:13Z</time>
      </trkpt>
      <trkpt lat="49.81743" lon="2.05268">
        <ele>94.7</ele>
        <time>2013-11-24T10:57:27Z</time>
      </trkpt>
      <trkpt lat="49.81731" lon="2.05256">
        <ele>95</ele>
        <time>2013-11-24T10:57:39Z</time>
      </trkpt>
      <trkpt lat="49.81719" lon="2.05247">
        <ele>95.3</ele>
        <time>2013-11-24T10:57:52Z</time>
      </trkpt>
      <trkpt lat="49.81706" lon="2.05235">
        <ele>95.6</ele>
        <time>2013-11-24T10:58:04Z</time>
      </trkpt>
      <trkpt lat="49.81695" lon="2.05222">
        <ele>95.9</ele>
        <time>2013-11-24T10:58:19Z</time>
      </trkpt>
      <trkpt lat="49.81684" lon="2.05208">
        <ele>96.2</ele>
        <time>2013-11-24T10:58:30Z</time>
      </trkpt>
      <trkpt lat="49.81672" lon="2.05198">
        <ele>96.4</ele>
        <time>2013-11-24T10:58:41Z</time>
      </trkpt>
      <trkpt lat="49.81661" lon="2.05186">
        <ele>96.7</ele>
        <time>2013-11-24T10:58:52Z</time>
      </trkpt>
      <trkpt lat="49.81651" lon="2.05172">
        <ele>96.9</ele>
        <time>2013-11-24T10:59:04Z</time>
      </trkpt>
      <trkpt lat="49.81639" lon="2.05157">
        <ele>94.3</ele>
        <time>2013-11-24T10:59:16Z</time>
      </trkpt>
      <trkpt lat="49.81628" lon="2.05146">
        <ele>92.7</ele>
        <time>2013-11-24T10:59:27Z</time>
      </trkpt>
      <trkpt lat="49.8162" lon="2.05131">
        <ele>91</ele>
        <time>2013-11-24T10:59:38Z</time>
      </trkpt>
      <trkpt lat="49.81607" lon="2.05124">
        <ele>90.8</ele>
        <time>2013-11-24T10:59:49Z</time>
      </trkpt>
      <trkpt lat="49.81595" lon="2.05111">
        <ele>93</ele>
        <time>2013-11-24T11:00:01Z</time>
      </trkpt>
      <trkpt lat="49.81583" lon="2.051">
        <ele>90.5</ele>
        <time>2013-11-24T11:00:10Z</time>
      </trkpt>
      <trkpt lat="49.8157" lon="2.05091">
        <ele>93.1</ele>
        <time>2013-11-24T11:00:21Z</time>
      </trkpt>
      <trkpt lat="49.81558" lon="2.05081">
        <ele>93.5</ele>
        <time>2013-11-24T11:00:33Z</time>
      </trkpt>
      <trkpt lat="49.81545" lon="2.05073">
        <ele>93.8</ele>
        <time>2013-11-24T11:00:43Z</time>
      </trkpt>
      <trkpt lat="49.81533" lon="2.0506">
        <ele>94.3</ele>
        <time>2013-11-24T11:00:56Z</time>
      </trkpt>
      <trkpt lat="49.81519" lon="2.05051">
        <ele>94.7</ele>
        <time>2013-11-24T11:01:10Z</time>
      </trkpt>
      <trkpt lat="49.81506" lon="2.05044">
        <ele>95.1</ele>
        <time>2013-11-24T11:01:21Z</time>
      </trkpt>
      <trkpt lat="49.81491" lon="2.05039">
        <ele>95.4</ele>
        <time>2013-11-24T11:01:31Z</time>
      </trkpt>
      <trkpt lat="49.81477" lon="2.05037">
        <ele>95.6</ele>
        <time>2013-11-24T11:01:37Z</time>
      </trkpt>
      <trkpt lat="49.81463" lon="2.05032">
        <ele>98.6</ele>
        <time>2013-11-24T11:02:04Z</time>
      </trkpt>
      <trkpt lat="49.81449" lon="2.05031">
        <ele>95.8</ele>
        <time>2013-11-24T11:02:14Z</time>
      </trkpt>
      <trkpt lat="49.81435" lon="2.05033">
        <ele>95</ele>
        <time>2013-11-24T11:02:21Z</time>
      </trkpt>
      <trkpt lat="49.81421" lon="2.05024">
        <ele>93.5</ele>
        <time>2013-11-24T11:02:35Z</time>
      </trkpt>
      <trkpt lat="49.81408" lon="2.05016">
        <ele>93</ele>
        <time>2013-11-24T11:02:48Z</time>
      </trkpt>
      <trkpt lat="49.81395" lon="2.05016">
        <ele>93</ele>
        <time>2013-11-24T11:03:00Z</time>
      </trkpt>
      <trkpt lat="49.8138" lon="2.05015">
        <ele>94.7</ele>
        <time>2013-11-24T11:03:09Z</time>
      </trkpt>
      <trkpt lat="49.81367" lon="2.05003">
        <ele>92.4</ele>
        <time>2013-11-24T11:03:21Z</time>
      </trkpt>
      <trkpt lat="49.81356" lon="2.04998">
        <ele>94.5</ele>
        <time>2013-11-24T11:03:33Z</time>
      </trkpt>
      <trkpt lat="49.81362" lon="2.05019">
        <ele>96.2</ele>
        <time>2013-11-24T11:03:44Z</time>
      </trkpt>
      <trkpt lat="49.81371" lon="2.05036">
        <ele>97</ele>
        <time>2013-11-24T11:03:54Z</time>
      </trkpt>
      <trkpt lat="49.81382" lon="2.0505">
        <ele>97.8</ele>
        <time>2013-11-24T11:04:05Z</time>
      </trkpt>
      <trkpt lat="49.81393" lon="2.05064">
        <ele>98.6</ele>
        <time>2013-11-24T11:04:15Z</time>
      </trkpt>
      <trkpt lat="49.81401" lon="2.0508">
        <ele>99.3</ele>
        <time>2013-11-24T11:04:24Z</time>
      </trkpt>
      <trkpt lat="49.81413" lon="2.05093">
        <ele>100.6</ele>
        <time>2013-11-24T11:04:35Z</time>
      </trkpt>
      <trkpt lat="49.81424" lon="2.05106">
        <ele>102.4</ele>
        <time>2013-11-24T11:04:45Z</time>
      </trkpt>
      <trkpt lat="49.81437" lon="2.05115">
        <ele>110.3</ele>
        <time>2013-11-24T11:04:55Z</time>
      </trkpt>
      <trkpt lat="49.81447" lon="2.0513">
        <ele>114.6</ele>
        <time>2013-11-24T11:05:06Z</time>
      </trkpt>
      <trkpt lat="49.81459" lon="2.05144">
        <ele>117</ele>
        <time>2013-11-24T11:05:16Z</time>
      </trkpt>
      <trkpt lat="49.81469" lon="2.05158">
        <ele>117.6</ele>
        <time>2013-11-24T11:05:26Z</time>
      </trkpt>
      <trkpt lat="49.81479" lon="2.05174">
        <ele>118.2</ele>
        <time>2013-11-24T11:05:36Z</time>
      </trkpt>
      <trkpt lat="49.81485" lon="2.05195">
        <ele>119</ele>
        <time>2013-11-24T11:05:53Z</time>
      </trkpt>
      <trkpt lat="49.81498" lon="2.05203">
        <ele>120.1</ele>
        <time>2013-11-24T11:06:05Z</time>
      </trkpt>
      <trkpt lat="49.81506" lon="2.0522">
        <ele>123.1</ele>
        <time>2013-11-24T11:06:15Z</time>
      </trkpt>
      <trkpt lat="49.81517" lon="2.05232">
        <ele>121.5</ele>
        <time>2013-11-24T11:06:28Z</time>
      </trkpt>
      <trkpt lat="49.81525" lon="2.05252">
        <ele>120.4</ele>
        <time>2013-11-24T11:06:37Z</time>
      </trkpt>
      <trkpt lat="49.81534" lon="2.05269">
        <ele>119.3</ele>
        <time>2013-11-24T11:06:49Z</time>
      </trkpt>
      <trkpt lat="49.81543" lon="2.05285">
        <ele>118.5</ele>
        <time>2013-11-24T11:06:58Z</time>
      </trkpt>
      <trkpt lat="49.81553" lon="2.053">
        <ele>119.1</ele>
        <time>2013-11-24T11:07:11Z</time>
      </trkpt>
      <trkpt lat="49.81559" lon="2.05319">
        <ele>120.9</ele>
        <time>2013-11-24T11:07:22Z</time>
      </trkpt>
      <trkpt lat="49.81568" lon="2.05336">
        <ele>122.6</ele>
        <time>2013-11-24T11:07:33Z</time>
      </trkpt>
      <trkpt lat="49.81575" lon="2.05355">
        <ele>123.4</ele>
        <time>2013-11-24T11:07:43Z</time>
      </trkpt>
      <trkpt lat="49.81582" lon="2.05374">
        <ele>122.3</ele>
        <time>2013-11-24T11:07:53Z</time>
      </trkpt>
      <trkpt lat="49.81589" lon="2.05393">
        <ele>125.2</ele>
        <time>2013-11-24T11:08:07Z</time>
      </trkpt>
      <trkpt lat="49.81596" lon="2.05412">
        <ele>126.2</ele>
        <time>2013-11-24T11:08:17Z</time>
      </trkpt>
      <trkpt lat="49.81604" lon="2.0543">
        <ele>130.3</ele>
        <time>2013-11-24T11:08:27Z</time>
      </trkpt>
      <trkpt lat="49.81609" lon="2.0545">
        <ele>130.7</ele>
        <time>2013-11-24T11:08:37Z</time>
      </trkpt>
      <trkpt lat="49.81609" lon="2.05471">
        <ele>130.3</ele>
        <time>2013-11-24T11:08:47Z</time>
      </trkpt>
      <trkpt lat="49.81613" lon="2.05496">
        <ele>130</ele>
        <time>2013-11-24T11:08:54Z</time>
      </trkpt>
      <trkpt lat="49.81619" lon="2.05515">
        <ele>130.9</ele>
        <time>2013-11-24T11:09:09Z</time>
      </trkpt>
      <trkpt lat="49.81628" lon="2.05531">
        <ele>133.3</ele>
        <time>2013-11-24T11:09:17Z</time>
      </trkpt>
      <trkpt lat="49.81635" lon="2.0555">
        <ele>135.7</ele>
        <time>2013-11-24T11:09:27Z</time>
      </trkpt>
      <trkpt lat="49.81645" lon="2.05565">
        <ele>133.7</ele>
        <time>2013-11-24T11:09:37Z</time>
      </trkpt>
      <trkpt lat="49.8165" lon="2.05587">
        <ele>132.2</ele>
        <time>2013-11-24T11:09:48Z</time>
      </trkpt>
      <trkpt lat="49.81658" lon="2.05604">
        <ele>131</ele>
        <time>2013-11-24T11:10:01Z</time>
      </trkpt>
      <trkpt lat="49.81667" lon="2.05621">
        <ele>129.9</ele>
        <time>2013-11-24T11:10:13Z</time>
      </trkpt>
      <trkpt lat="49.81674" lon="2.05639">
        <ele>128.6</ele>
        <time>2013-11-24T11:10:24Z</time>
      </trkpt>
      <trkpt lat="49.81683" lon="2.05656">
        <ele>129.2</ele>
        <time>2013-11-24T11:10:35Z</time>
      </trkpt>
      <trkpt lat="49.81693" lon="2.05673">
        <ele>130.9</ele>
        <time>2013-11-24T11:10:45Z</time>
      </trkpt>
      <trkpt lat="49.81702" lon="2.05688">
        <ele>131.9</ele>
        <time>2013-11-24T11:10:55Z</time>
      </trkpt>
      <trkpt lat="49.8171" lon="2.05706">
        <ele>131.7</ele>
        <time>2013-11-24T11:11:05Z</time>
      </trkpt>
      <trkpt lat="49.8172" lon="2.0572">
        <ele>131.5</ele>
        <time>2013-11-24T11:11:14Z</time>
      </trkpt>
      <trkpt lat="49.81729" lon="2.05738">
        <ele>131.2</ele>
        <time>2013-11-24T11:11:26Z</time>
      </trkpt>
      <trkpt lat="49.81737" lon="2.05755">
        <ele>131</ele>
        <time>2013-11-24T11:11:37Z</time>
      </trkpt>
      <trkpt lat="49.81744" lon="2.05773">
        <ele>130.8</ele>
        <time>2013-11-24T11:11:48Z</time>
      </trkpt>
      <trkpt lat="49.81757" lon="2.05782">
        <ele>130.6</ele>
        <time>2013-11-24T11:11:56Z</time>
      </trkpt>
      <trkpt lat="49.81768" lon="2.05795">
        <ele>130.4</ele>
        <time>2013-11-24T11:12:04Z</time>
      </trkpt>
      <trkpt lat="49.81777" lon="2.05811">
        <ele>130.2</ele>
        <time>2013-11-24T11:12:13Z</time>
      </trkpt>
      <trkpt lat="49.81781" lon="2.05832">
        <ele>130</ele>
        <time>2013-11-24T11:12:24Z</time>
      </trkpt>
      <trkpt lat="49.81786" lon="2.05853">
        <ele>129.7</ele>
        <time>2013-11-24T11:12:36Z</time>
      </trkpt>
      <trkpt lat="49.81792" lon="2.05871">
        <ele>129.5</ele>
        <time>2013-11-24T11:12:46Z</time>
      </trkpt>
      <trkpt lat="49.81802" lon="2.05893">
        <ele>129.3</ele>
        <time>2013-11-24T11:12:56Z</time>
      </trkpt>
      <trkpt lat="49.81811" lon="2.05911">
        <ele>129.1</ele>
        <time>2013-11-24T11:13:11Z</time>
      </trkpt>
      <trkpt lat="49.8182" lon="2.05927">
        <ele>129.7</ele>
        <time>2013-11-24T11:13:21Z</time>
      </trkpt>
      <trkpt lat="49.81829" lon="2.05944">
        <ele>130.2</ele>
        <time>2013-11-24T11:13:31Z</time>
      </trkpt>
      <trkpt lat="49.81837" lon="2.05962">
        <ele>130.8</ele>
        <time>2013-11-24T11:13:42Z</time>
      </trkpt>
      <trkpt lat="49.81846" lon="2.05979">
        <ele>131.4</ele>
        <time>2013-11-24T11:13:52Z</time>
      </trkpt>
      <trkpt lat="49.81856" lon="2.05994">
        <ele>131.9</ele>
        <time>2013-11-24T11:14:01Z</time>
      </trkpt>
      <trkpt lat="49.81863" lon="2.06014">
        <ele>134</ele>
        <time>2013-11-24T11:14:13Z</time>
      </trkpt>
      <trkpt lat="49.81873" lon="2.06031">
        <ele>136</ele>
        <time>2013-11-24T11:14:23Z</time>
      </trkpt>
      <trkpt lat="49.81883" lon="2.06048">
        <ele>133</ele>
        <time>2013-11-24T11:14:33Z</time>
      </trkpt>
      <trkpt lat="49.8189" lon="2.06066">
        <ele>130.6</ele>
        <time>2013-11-24T11:14:44Z</time>
      </trkpt>
      <trkpt lat="49.81898" lon="2.06084">
        <ele>128.4</ele>
        <time>2013-11-24T11:14:55Z</time>
      </trkpt>
      <trkpt lat="49.81902" lon="2.06104">
        <ele>126.9</ele>
        <time>2013-11-24T11:15:06Z</time>
      </trkpt>
      <trkpt lat="49.81908" lon="2.06123">
        <ele>125.5</ele>
        <time>2013-11-24T11:15:15Z</time>
      </trkpt>
      <trkpt lat="49.81916" lon="2.06143">
        <ele>124.6</ele>
        <time>2013-11-24T11:15:27Z</time>
      </trkpt>
      <trkpt lat="49.81921" lon="2.06163">
        <ele>124.1</ele>
        <time>2013-11-24T11:15:37Z</time>
      </trkpt>
      <trkpt lat="49.81929" lon="2.06182">
        <ele>125.3</ele>
        <time>2013-11-24T11:15:47Z</time>
      </trkpt>
      <trkpt lat="49.81937" lon="2.062">
        <ele>126.8</ele>
        <time>2013-11-24T11:15:59Z</time>
      </trkpt>
      <trkpt lat="49.81942" lon="2.06221">
        <ele>126.1</ele>
        <time>2013-11-24T11:16:09Z</time>
      </trkpt>
      <trkpt lat="49.81946" lon="2.06242">
        <ele>125.3</ele>
        <time>2013-11-24T11:16:21Z</time>
      </trkpt>
      <trkpt lat="49.81953" lon="2.06262">
        <ele>124.6</ele>
        <time>2013-11-24T11:16:31Z</time>
      </trkpt>
      <trkpt lat="49.81955" lon="2.06283">
        <ele>124.5</ele>
        <time>2013-11-24T11:16:43Z</time>
      </trkpt>
      <trkpt lat="49.81961" lon="2.06304">
        <ele>126.1</ele>
        <time>2013-11-24T11:16:52Z</time>
      </trkpt>
      <trkpt lat="49.81967" lon="2.06323">
        <ele>125.8</ele>
        <time>2013-11-24T11:17:01Z</time>
      </trkpt>
      <trkpt lat="49.81967" lon="2.06345">
        <ele>122.3</ele>
        <time>2013-11-24T11:17:13Z</time>
      </trkpt>
      <trkpt lat="49.8197" lon="2.06367">
        <ele>121.8</ele>
        <time>2013-11-24T11:17:23Z</time>
      </trkpt>
      <trkpt lat="49.81972" lon="2.06387">
        <ele>121.6</ele>
        <time>2013-11-24T11:17:32Z</time>
      </trkpt>
      <trkpt lat="49.81974" lon="2.06408">
        <ele>121.5</ele>
        <time>2013-11-24T11:17:40Z</time>
      </trkpt>
      <trkpt lat="49.81976" lon="2.0643">
        <ele>121.2</ele>
        <time>2013-11-24T11:17:51Z</time>
      </trkpt>
      <trkpt lat="49.81976" lon="2.06452">
        <ele>121</ele>
        <time>2013-11-24T11:18:03Z</time>
      </trkpt>
      <trkpt lat="49.81976" lon="2.06473">
        <ele>120.8</ele>
        <time>2013-11-24T11:18:13Z</time>
      </trkpt>
      <trkpt lat="49.81975" lon="2.06495">
        <ele>120.6</ele>
        <time>2013-11-24T11:18:22Z</time>
      </trkpt>
      <trkpt lat="49.81976" lon="2.06517">
        <ele>120.3</ele>
        <time>2013-11-24T11:18:33Z</time>
      </trkpt>
      <trkpt lat="49.81973" lon="2.06537">
        <ele>120.1</ele>
        <time>2013-11-24T11:18:46Z</time>
      </trkpt>
      <trkpt lat="49.81976" lon="2.06559">
        <ele>119.9</ele>
        <time>2013-11-24T11:18:53Z</time>
      </trkpt>
      <trkpt lat="49.81976" lon="2.0658">
        <ele>119.7</ele>
        <time>2013-11-24T11:19:03Z</time>
      </trkpt>
      <trkpt lat="49.81977" lon="2.06602">
        <ele>119.5</ele>
        <time>2013-11-24T11:19:13Z</time>
      </trkpt>
      <trkpt lat="49.81978" lon="2.06624">
        <ele>119.3</ele>
        <time>2013-11-24T11:19:23Z</time>
      </trkpt>
      <trkpt lat="49.81985" lon="2.06643">
        <ele>119.1</ele>
        <time>2013-11-24T11:19:32Z</time>
      </trkpt>
      <trkpt lat="49.81993" lon="2.06662">
        <ele>123</ele>
        <time>2013-11-24T11:19:41Z</time>
      </trkpt>
      <trkpt lat="49.82" lon="2.06681">
        <ele>127.7</ele>
        <time>2013-11-24T11:19:53Z</time>
      </trkpt>
      <trkpt lat="49.82008" lon="2.06699">
        <ele>124</ele>
        <time>2013-11-24T11:20:02Z</time>
      </trkpt>
      <trkpt lat="49.82015" lon="2.06718">
        <ele>121.5</ele>
        <time>2013-11-24T11:20:11Z</time>
      </trkpt>
      <trkpt lat="49.82022" lon="2.06735">
        <ele>120.5</ele>
        <time>2013-11-24T11:20:20Z</time>
      </trkpt>
      <trkpt lat="49.8203" lon="2.06753">
        <ele>119.2</ele>
        <time>2013-11-24T11:20:31Z</time>
      </trkpt>
      <trkpt lat="49.8204" lon="2.06768">
        <ele>118.7</ele>
        <time>2013-11-24T11:20:40Z</time>
      </trkpt>
      <trkpt lat="49.82045" lon="2.06788">
        <ele>118.2</ele>
        <time>2013-11-24T11:20:52Z</time>
      </trkpt>
      <trkpt lat="49.82054" lon="2.06805">
        <ele>117.7</ele>
        <time>2013-11-24T11:21:02Z</time>
      </trkpt>
      <trkpt lat="49.82062" lon="2.06822">
        <ele>117.4</ele>
        <time>2013-11-24T11:21:09Z</time>
      </trkpt>
      <trkpt lat="49.82068" lon="2.0684">
        <ele>117</ele>
        <time>2013-11-24T11:21:18Z</time>
      </trkpt>
      <trkpt lat="49.82067" lon="2.06861">
        <ele>116.5</ele>
        <time>2013-11-24T11:21:29Z</time>
      </trkpt>
      <trkpt lat="49.82072" lon="2.06881">
        <ele>116</ele>
        <time>2013-11-24T11:21:41Z</time>
      </trkpt>
      <trkpt lat="49.82081" lon="2.06899">
        <ele>114</ele>
        <time>2013-11-24T11:21:51Z</time>
      </trkpt>
      <trkpt lat="49.82089" lon="2.06919">
        <ele>113.8</ele>
        <time>2013-11-24T11:22:01Z</time>
      </trkpt>
      <trkpt lat="49.82098" lon="2.06935">
        <ele>113.6</ele>
        <time>2013-11-24T11:22:10Z</time>
      </trkpt>
      <trkpt lat="49.82105" lon="2.06954">
        <ele>113.2</ele>
        <time>2013-11-24T11:22:20Z</time>
      </trkpt>
      <trkpt lat="49.82113" lon="2.06971">
        <ele>112.8</ele>
        <time>2013-11-24T11:22:28Z</time>
      </trkpt>
      <trkpt lat="49.82122" lon="2.06989">
        <ele>112.4</ele>
        <time>2013-11-24T11:22:37Z</time>
      </trkpt>
      <trkpt lat="49.82127" lon="2.07008">
        <ele>112</ele>
        <time>2013-11-24T11:22:47Z</time>
      </trkpt>
      <trkpt lat="49.82128" lon="2.07031">
        <ele>111.5</ele>
        <time>2013-11-24T11:22:57Z</time>
      </trkpt>
      <trkpt lat="49.82127" lon="2.07044">
        <ele>111.2</ele>
        <time>2013-11-24T11:23:04Z</time>
      </trkpt>
      <trkpt lat="49.82116" lon="2.07059">
        <ele>111.3</ele>
        <time>2013-11-24T11:23:15Z</time>
      </trkpt>
      <trkpt lat="49.8212" lon="2.07081">
        <ele>112</ele>
        <time>2013-11-24T11:23:27Z</time>
      </trkpt>
      <trkpt lat="49.82116" lon="2.07103">
        <ele>112.4</ele>
        <time>2013-11-24T11:23:36Z</time>
      </trkpt>
      <trkpt lat="49.82119" lon="2.07123">
        <ele>112.9</ele>
        <time>2013-11-24T11:23:45Z</time>
      </trkpt>
      <trkpt lat="49.8212" lon="2.07145">
        <ele>113.5</ele>
        <time>2013-11-24T11:23:55Z</time>
      </trkpt>
      <trkpt lat="49.82116" lon="2.07165">
        <ele>113.9</ele>
        <time>2013-11-24T11:24:08Z</time>
      </trkpt>
      <trkpt lat="49.82121" lon="2.07184">
        <ele>113.5</ele>
        <time>2013-11-24T11:24:19Z</time>
      </trkpt>
      <trkpt lat="49.82126" lon="2.07204">
        <ele>112.9</ele>
        <time>2013-11-24T11:24:36Z</time>
      </trkpt>
      <trkpt lat="49.82129" lon="2.07226">
        <ele>112.6</ele>
        <time>2013-11-24T11:24:44Z</time>
      </trkpt>
      <trkpt lat="49.82129" lon="2.07248">
        <ele>112.3</ele>
        <time>2013-11-24T11:24:54Z</time>
      </trkpt>
      <trkpt lat="49.82133" lon="2.07268">
        <ele>112</ele>
        <time>2013-11-24T11:25:02Z</time>
      </trkpt>
      <trkpt lat="49.82135" lon="2.0729">
        <ele>111.7</ele>
        <time>2013-11-24T11:25:09Z</time>
      </trkpt>
      <trkpt lat="49.82144" lon="2.07305">
        <ele>111.5</ele>
        <time>2013-11-24T11:25:15Z</time>
      </trkpt>
      <trkpt lat="49.82154" lon="2.07329">
        <ele>111.1</ele>
        <time>2013-11-24T11:25:28Z</time>
      </trkpt>
      <trkpt lat="49.8215" lon="2.07353">
        <ele>120.5</ele>
        <time>2013-11-24T11:25:35Z</time>
      </trkpt>
      <trkpt lat="49.82148" lon="2.07375">
        <ele>123</ele>
        <time>2013-11-24T11:25:44Z</time>
      </trkpt>
      <trkpt lat="49.82147" lon="2.07396">
        <ele>123</ele>
        <time>2013-11-24T11:25:54Z</time>
      </trkpt>
      <trkpt lat="49.82149" lon="2.07417">
        <ele>121.5</ele>
        <time>2013-11-24T11:26:03Z</time>
      </trkpt>
      <trkpt lat="49.82153" lon="2.07438">
        <ele>122.7</ele>
        <time>2013-11-24T11:26:15Z</time>
      </trkpt>
      <trkpt lat="49.82156" lon="2.07459">
        <ele>123.1</ele>
        <time>2013-11-24T11:26:21Z</time>
      </trkpt>
      <trkpt lat="49.82157" lon="2.07482">
        <ele>123.7</ele>
        <time>2013-11-24T11:26:30Z</time>
      </trkpt>
      <trkpt lat="49.82155" lon="2.07505">
        <ele>123.7</ele>
        <time>2013-11-24T11:26:37Z</time>
      </trkpt>
      <trkpt lat="49.82164" lon="2.07523">
        <ele>122.5</ele>
        <time>2013-11-24T11:26:51Z</time>
      </trkpt>
      <trkpt lat="49.82176" lon="2.07535">
        <ele>120.4</ele>
        <time>2013-11-24T11:27:14Z</time>
      </trkpt>
      <trkpt lat="49.82179" lon="2.07556">
        <ele>119.7</ele>
        <time>2013-11-24T11:27:22Z</time>
      </trkpt>
      <trkpt lat="49.82185" lon="2.07576">
        <ele>119</ele>
        <time>2013-11-24T11:27:29Z</time>
      </trkpt>
      <trkpt lat="49.82192" lon="2.07596">
        <ele>118.3</ele>
        <time>2013-11-24T11:27:37Z</time>
      </trkpt>
      <trkpt lat="49.82194" lon="2.07617">
        <ele>118.5</ele>
        <time>2013-11-24T11:27:44Z</time>
      </trkpt>
      <trkpt lat="49.82198" lon="2.07638">
        <ele>120.6</ele>
        <time>2013-11-24T11:28:00Z</time>
      </trkpt>
      <trkpt lat="49.82202" lon="2.07658">
        <ele>123.5</ele>
        <time>2013-11-24T11:28:12Z</time>
      </trkpt>
      <trkpt lat="49.82209" lon="2.07677">
        <ele>127.4</ele>
        <time>2013-11-24T11:28:21Z</time>
      </trkpt>
      <trkpt lat="49.82217" lon="2.07693">
        <ele>129.9</ele>
        <time>2013-11-24T11:28:32Z</time>
      </trkpt>
      <trkpt lat="49.82229" lon="2.07705">
        <ele>131.1</ele>
        <time>2013-11-24T11:28:41Z</time>
      </trkpt>
      <trkpt lat="49.82238" lon="2.07721">
        <ele>132.4</ele>
        <time>2013-11-24T11:28:50Z</time>
      </trkpt>
      <trkpt lat="49.8225" lon="2.07733">
        <ele>133</ele>
        <time>2013-11-24T11:29:00Z</time>
      </trkpt>
      <trkpt lat="49.82259" lon="2.07749">
        <ele>132.5</ele>
        <time>2013-11-24T11:29:12Z</time>
      </trkpt>
      <trkpt lat="49.82262" lon="2.07769">
        <ele>131.8</ele>
        <time>2013-11-24T11:29:24Z</time>
      </trkpt>
      <trkpt lat="49.82271" lon="2.07788">
        <ele>131.2</ele>
        <time>2013-11-24T11:29:39Z</time>
      </trkpt>
      <trkpt lat="49.82282" lon="2.07801">
        <ele>130.8</ele>
        <time>2013-11-24T11:29:49Z</time>
      </trkpt>
      <trkpt lat="49.82292" lon="2.07818">
        <ele>130.4</ele>
        <time>2013-11-24T11:29:58Z</time>
      </trkpt>
      <trkpt lat="49.82305" lon="2.07829">
        <ele>129.9</ele>
        <time>2013-11-24T11:30:08Z</time>
      </trkpt>
      <trkpt lat="49.82318" lon="2.07839">
        <ele>129.3</ele>
        <time>2013-11-24T11:30:22Z</time>
      </trkpt>
      <trkpt lat="49.8233" lon="2.07851">
        <ele>128.8</ele>
        <time>2013-11-24T11:30:33Z</time>
      </trkpt>
      <trkpt lat="49.82341" lon="2.07863">
        <ele>128.2</ele>
        <time>2013-11-24T11:30:42Z</time>
      </trkpt>
      <trkpt lat="49.82353" lon="2.07874">
        <ele>127.4</ele>
        <time>2013-11-24T11:30:53Z</time>
      </trkpt>
      <trkpt lat="49.82366" lon="2.07884">
        <ele>126.8</ele>
        <time>2013-11-24T11:31:02Z</time>
      </trkpt>
      <trkpt lat="49.82379" lon="2.07895">
        <ele>126.1</ele>
        <time>2013-11-24T11:31:12Z</time>
      </trkpt>
      <trkpt lat="49.82391" lon="2.07905">
        <ele>127.2</ele>
        <time>2013-11-24T11:31:22Z</time>
      </trkpt>
      <trkpt lat="49.82402" lon="2.07918">
        <ele>128.9</ele>
        <time>2013-11-24T11:31:35Z</time>
      </trkpt>
      <trkpt lat="49.82414" lon="2.07929">
        <ele>130.4</ele>
        <time>2013-11-24T11:31:47Z</time>
      </trkpt>
      <trkpt lat="49.82428" lon="2.07936">
        <ele>131.6</ele>
        <time>2013-11-24T11:31:56Z</time>
      </trkpt>
      <trkpt lat="49.8244" lon="2.07948">
        <ele>133.2</ele>
        <time>2013-11-24T11:32:08Z</time>
      </trkpt>
      <trkpt lat="49.82452" lon="2.07963">
        <ele>134.7</ele>
        <time>2013-11-24T11:32:20Z</time>
      </trkpt>
      <trkpt lat="49.82465" lon="2.07972">
        <ele>138</ele>
        <time>2013-11-24T11:32:28Z</time>
      </trkpt>
      <trkpt lat="49.82477" lon="2.07985">
        <ele>139</ele>
        <time>2013-11-24T11:32:39Z</time>
      </trkpt>
      <trkpt lat="49.82472" lon="2.08004">
        <ele>135.2</ele>
        <time>2013-11-24T11:32:51Z</time>
      </trkpt>
      <trkpt lat="49.82464" lon="2.08024">
        <ele>133.4</ele>
        <time>2013-11-24T11:32:59Z</time>
      </trkpt>
      <trkpt lat="49.82458" lon="2.08044">
        <ele>134</ele>
        <time>2013-11-24T11:33:07Z</time>
      </trkpt>
      <trkpt lat="49.8245" lon="2.08064">
        <ele>133.2</ele>
        <time>2013-11-24T11:33:16Z</time>
      </trkpt>
      <trkpt lat="49.82447" lon="2.08086">
        <ele>130</ele>
        <time>2013-11-24T11:33:30Z</time>
      </trkpt>
      <trkpt lat="49.82436" lon="2.08098">
        <ele>128.2</ele>
        <time>2013-11-24T11:33:43Z</time>
      </trkpt>
      <trkpt lat="49.82436" lon="2.08119">
        <ele>127.8</ele>
        <time>2013-11-24T11:33:56Z</time>
      </trkpt>
      <trkpt lat="49.82444" lon="2.08138">
        <ele>124.5</ele>
        <time>2013-11-24T11:34:08Z</time>
      </trkpt>
      <trkpt lat="49.82452" lon="2.08157">
        <ele>120</ele>
        <time>2013-11-24T11:34:26Z</time>
      </trkpt>
      <trkpt lat="49.82466" lon="2.08166">
        <ele>126.7</ele>
        <time>2013-11-24T11:34:31Z</time>
      </trkpt>
      <trkpt lat="49.82466" lon="2.08166">
        <ele>126.7</ele>
        <time>2013-11-24T11:35:57Z</time>
      </trkpt>
      <trkpt lat="49.82478" lon="2.08173">
        <ele>133</ele>
        <time>2013-11-24T11:35:58Z</time>
      </trkpt>
      <trkpt lat="49.82483" lon="2.08196">
        <ele>133</ele>
        <time>2013-11-24T11:36:06Z</time>
      </trkpt>
      <trkpt lat="49.82495" lon="2.0821">
        <ele>133</ele>
        <time>2013-11-24T11:36:21Z</time>
      </trkpt>
      <trkpt lat="49.82506" lon="2.08215">
        <ele>133</ele>
        <time>2013-11-24T11:36:32Z</time>
      </trkpt>
      <trkpt lat="49.82494" lon="2.08203">
        <ele>133</ele>
        <time>2013-11-24T11:36:44Z</time>
      </trkpt>
    </trkseg>
  </trk>
</gpx>